<?xml version="1.0" encoding="UTF-8" standalone="no" ?>
<gpx xmlns="http://www.topografix.com/GPX/1/1" xmlns:xsi="http://www.w3.org/2001/XMLSchema-instance" xsi:schemaLocation="http://www.topografix.com/GPX/1/1 http://www.topografix.com/GPX/1/1/gpx.xsd" version="1.1" creator="VisuGPX - https://www.visugpx.com">
  <metadata>
    <name>gravel 2025</name>
  </metadata>
  <wpt lat="44.11889" lon="5.14002">
    <ele>299.9</ele>
    <name><![CDATA[Ravitaillement]]></name>
    <desc><![CDATA[]]></desc>
  </wpt>
  <trk>
    <name><![CDATA[Gravel Ronde 2025  Parcours exact-22683285]]></name>
    <trkseg>
      <trkpt lat="44.06717" lon="5.12741">
        <ele>162</ele>
        <time>2025-11-11T17:25:01Z</time>
      </trkpt>
      <trkpt lat="44.06773" lon="5.12731">
        <ele>164</ele>
        <time>2025-11-11T17:25:11Z</time>
      </trkpt>
      <trkpt lat="44.06856" lon="5.12703">
        <ele>166</ele>
        <time>2025-11-11T17:25:26Z</time>
      </trkpt>
      <trkpt lat="44.06905" lon="5.12699">
        <ele>167</ele>
        <time>2025-11-11T17:25:35Z</time>
      </trkpt>
      <trkpt lat="44.06924" lon="5.12701">
        <ele>167</ele>
        <time>2025-11-11T17:25:38Z</time>
      </trkpt>
      <trkpt lat="44.06953" lon="5.12711">
        <ele>168</ele>
        <time>2025-11-11T17:25:44Z</time>
      </trkpt>
      <trkpt lat="44.06975" lon="5.12729">
        <ele>167</ele>
        <time>2025-11-11T17:25:48Z</time>
      </trkpt>
      <trkpt lat="44.06989" lon="5.12735">
        <ele>167</ele>
        <time>2025-11-11T17:25:51Z</time>
      </trkpt>
      <trkpt lat="44.07092" lon="5.12745">
        <ele>170</ele>
        <time>2025-11-11T17:26:09Z</time>
      </trkpt>
      <trkpt lat="44.07099" lon="5.12747">
        <ele>170</ele>
        <time>2025-11-11T17:26:10Z</time>
      </trkpt>
      <trkpt lat="44.07103" lon="5.12755">
        <ele>170</ele>
        <time>2025-11-11T17:26:12Z</time>
      </trkpt>
      <trkpt lat="44.07076" lon="5.12993">
        <ele>164</ele>
        <time>2025-11-11T17:26:43Z</time>
      </trkpt>
      <trkpt lat="44.07056" lon="5.1311">
        <ele>165</ele>
        <time>2025-11-11T17:26:58Z</time>
      </trkpt>
      <trkpt lat="44.07038" lon="5.1329">
        <ele>167</ele>
        <time>2025-11-11T17:27:21Z</time>
      </trkpt>
      <trkpt lat="44.07026" lon="5.13355">
        <ele>169</ele>
        <time>2025-11-11T17:27:30Z</time>
      </trkpt>
      <trkpt lat="44.06996" lon="5.13431">
        <ele>173</ele>
        <time>2025-11-11T17:27:41Z</time>
      </trkpt>
      <trkpt lat="44.06984" lon="5.13473">
        <ele>173</ele>
        <time>2025-11-11T17:27:47Z</time>
      </trkpt>
      <trkpt lat="44.06975" lon="5.13577">
        <ele>173</ele>
        <time>2025-11-11T17:28:00Z</time>
      </trkpt>
      <trkpt lat="44.06939" lon="5.13874">
        <ele>174</ele>
        <time>2025-11-11T17:28:38Z</time>
      </trkpt>
      <trkpt lat="44.06941" lon="5.13891">
        <ele>174</ele>
        <time>2025-11-11T17:28:41Z</time>
      </trkpt>
      <trkpt lat="44.06954" lon="5.13899">
        <ele>175</ele>
        <time>2025-11-11T17:28:43Z</time>
      </trkpt>
      <trkpt lat="44.06957" lon="5.13908">
        <ele>175</ele>
        <time>2025-11-11T17:28:44Z</time>
      </trkpt>
      <trkpt lat="44.06951" lon="5.14001">
        <ele>176</ele>
        <time>2025-11-11T17:28:56Z</time>
      </trkpt>
      <trkpt lat="44.06925" lon="5.14171">
        <ele>179</ele>
        <time>2025-11-11T17:29:19Z</time>
      </trkpt>
      <trkpt lat="44.06901" lon="5.14307">
        <ele>178</ele>
        <time>2025-11-11T17:29:37Z</time>
      </trkpt>
      <trkpt lat="44.06857" lon="5.14435">
        <ele>182</ele>
        <time>2025-11-11T17:29:55Z</time>
      </trkpt>
      <trkpt lat="44.06848" lon="5.14473">
        <ele>183</ele>
        <time>2025-11-11T17:30:00Z</time>
      </trkpt>
      <trkpt lat="44.06832" lon="5.14494">
        <ele>184</ele>
        <time>2025-11-11T17:30:04Z</time>
      </trkpt>
      <trkpt lat="44.06834" lon="5.14582">
        <ele>187</ele>
        <time>2025-11-11T17:30:15Z</time>
      </trkpt>
      <trkpt lat="44.06826" lon="5.14663">
        <ele>192</ele>
        <time>2025-11-11T17:30:25Z</time>
      </trkpt>
      <trkpt lat="44.0683" lon="5.14765">
        <ele>196</ele>
        <time>2025-11-11T17:30:38Z</time>
      </trkpt>
      <trkpt lat="44.06828" lon="5.14817">
        <ele>197</ele>
        <time>2025-11-11T17:30:45Z</time>
      </trkpt>
      <trkpt lat="44.06836" lon="5.14883">
        <ele>198</ele>
        <time>2025-11-11T17:30:54Z</time>
      </trkpt>
      <trkpt lat="44.06853" lon="5.14947">
        <ele>198</ele>
        <time>2025-11-11T17:31:02Z</time>
      </trkpt>
      <trkpt lat="44.06861" lon="5.14954">
        <ele>198</ele>
        <time>2025-11-11T17:31:04Z</time>
      </trkpt>
      <trkpt lat="44.06901" lon="5.14967">
        <ele>199</ele>
        <time>2025-11-11T17:31:11Z</time>
      </trkpt>
      <trkpt lat="44.06919" lon="5.14979">
        <ele>199</ele>
        <time>2025-11-11T17:31:15Z</time>
      </trkpt>
      <trkpt lat="44.06965" lon="5.14993">
        <ele>201</ele>
        <time>2025-11-11T17:31:23Z</time>
      </trkpt>
      <trkpt lat="44.0698" lon="5.15003">
        <ele>201</ele>
        <time>2025-11-11T17:31:26Z</time>
      </trkpt>
      <trkpt lat="44.07058" lon="5.15081">
        <ele>207</ele>
        <time>2025-11-11T17:31:43Z</time>
      </trkpt>
      <trkpt lat="44.07088" lon="5.15092">
        <ele>208</ele>
        <time>2025-11-11T17:31:49Z</time>
      </trkpt>
      <trkpt lat="44.07126" lon="5.15126">
        <ele>209</ele>
        <time>2025-11-11T17:31:57Z</time>
      </trkpt>
      <trkpt lat="44.07148" lon="5.15158">
        <ele>210</ele>
        <time>2025-11-11T17:32:03Z</time>
      </trkpt>
      <trkpt lat="44.07165" lon="5.15197">
        <ele>212</ele>
        <time>2025-11-11T17:32:08Z</time>
      </trkpt>
      <trkpt lat="44.07172" lon="5.15203">
        <ele>212</ele>
        <time>2025-11-11T17:32:10Z</time>
      </trkpt>
      <trkpt lat="44.0718" lon="5.15202">
        <ele>212</ele>
        <time>2025-11-11T17:32:11Z</time>
      </trkpt>
      <trkpt lat="44.07192" lon="5.1519">
        <ele>212</ele>
        <time>2025-11-11T17:32:14Z</time>
      </trkpt>
      <trkpt lat="44.07206" lon="5.15183">
        <ele>212</ele>
        <time>2025-11-11T17:32:17Z</time>
      </trkpt>
      <trkpt lat="44.07266" lon="5.15175">
        <ele>212</ele>
        <time>2025-11-11T17:32:27Z</time>
      </trkpt>
      <trkpt lat="44.0728" lon="5.15171">
        <ele>212</ele>
        <time>2025-11-11T17:32:30Z</time>
      </trkpt>
      <trkpt lat="44.07292" lon="5.15159">
        <ele>212</ele>
        <time>2025-11-11T17:32:32Z</time>
      </trkpt>
      <trkpt lat="44.07309" lon="5.15159">
        <ele>212</ele>
        <time>2025-11-11T17:32:36Z</time>
      </trkpt>
      <trkpt lat="44.07371" lon="5.15122">
        <ele>210</ele>
        <time>2025-11-11T17:32:48Z</time>
      </trkpt>
      <trkpt lat="44.07467" lon="5.15075">
        <ele>209</ele>
        <time>2025-11-11T17:33:06Z</time>
      </trkpt>
      <trkpt lat="44.07523" lon="5.15052">
        <ele>209</ele>
        <time>2025-11-11T17:33:16Z</time>
      </trkpt>
      <trkpt lat="44.07553" lon="5.1505">
        <ele>209</ele>
        <time>2025-11-11T17:33:21Z</time>
      </trkpt>
      <trkpt lat="44.07605" lon="5.15054">
        <ele>210</ele>
        <time>2025-11-11T17:33:31Z</time>
      </trkpt>
      <trkpt lat="44.07664" lon="5.15044">
        <ele>211</ele>
        <time>2025-11-11T17:33:41Z</time>
      </trkpt>
      <trkpt lat="44.07806" lon="5.14978">
        <ele>209</ele>
        <time>2025-11-11T17:34:08Z</time>
      </trkpt>
      <trkpt lat="44.07814" lon="5.14988">
        <ele>209</ele>
        <time>2025-11-11T17:34:10Z</time>
      </trkpt>
      <trkpt lat="44.07828" lon="5.15027">
        <ele>211</ele>
        <time>2025-11-11T17:34:15Z</time>
      </trkpt>
      <trkpt lat="44.07829" lon="5.15043">
        <ele>211</ele>
        <time>2025-11-11T17:34:17Z</time>
      </trkpt>
      <trkpt lat="44.07822" lon="5.15068">
        <ele>213</ele>
        <time>2025-11-11T17:34:21Z</time>
      </trkpt>
      <trkpt lat="44.07804" lon="5.15101">
        <ele>214</ele>
        <time>2025-11-11T17:34:26Z</time>
      </trkpt>
      <trkpt lat="44.07803" lon="5.15122">
        <ele>215</ele>
        <time>2025-11-11T17:34:29Z</time>
      </trkpt>
      <trkpt lat="44.07834" lon="5.15181">
        <ele>220</ele>
        <time>2025-11-11T17:34:38Z</time>
      </trkpt>
      <trkpt lat="44.07853" lon="5.15194">
        <ele>221</ele>
        <time>2025-11-11T17:34:42Z</time>
      </trkpt>
      <trkpt lat="44.07879" lon="5.15195">
        <ele>222</ele>
        <time>2025-11-11T17:34:47Z</time>
      </trkpt>
      <trkpt lat="44.07911" lon="5.15186">
        <ele>222</ele>
        <time>2025-11-11T17:34:52Z</time>
      </trkpt>
      <trkpt lat="44.08071" lon="5.15089">
        <ele>226</ele>
        <time>2025-11-11T17:35:23Z</time>
      </trkpt>
      <trkpt lat="44.08085" lon="5.15084">
        <ele>227</ele>
        <time>2025-11-11T17:35:26Z</time>
      </trkpt>
      <trkpt lat="44.08096" lon="5.15092">
        <ele>228</ele>
        <time>2025-11-11T17:35:28Z</time>
      </trkpt>
      <trkpt lat="44.08102" lon="5.15106">
        <ele>228</ele>
        <time>2025-11-11T17:35:30Z</time>
      </trkpt>
      <trkpt lat="44.08134" lon="5.15313">
        <ele>232</ele>
        <time>2025-11-11T17:35:57Z</time>
      </trkpt>
      <trkpt lat="44.08141" lon="5.15324">
        <ele>233</ele>
        <time>2025-11-11T17:35:59Z</time>
      </trkpt>
      <trkpt lat="44.08148" lon="5.15327">
        <ele>233</ele>
        <time>2025-11-11T17:36:00Z</time>
      </trkpt>
      <trkpt lat="44.08222" lon="5.15309">
        <ele>235</ele>
        <time>2025-11-11T17:36:14Z</time>
      </trkpt>
      <trkpt lat="44.0835" lon="5.15305">
        <ele>236</ele>
        <time>2025-11-11T17:36:37Z</time>
      </trkpt>
      <trkpt lat="44.08407" lon="5.1534">
        <ele>238</ele>
        <time>2025-11-11T17:36:48Z</time>
      </trkpt>
      <trkpt lat="44.08449" lon="5.15381">
        <ele>242</ele>
        <time>2025-11-11T17:36:57Z</time>
      </trkpt>
      <trkpt lat="44.08483" lon="5.15379">
        <ele>242</ele>
        <time>2025-11-11T17:37:03Z</time>
      </trkpt>
      <trkpt lat="44.08487" lon="5.15387">
        <ele>243</ele>
        <time>2025-11-11T17:37:04Z</time>
      </trkpt>
      <trkpt lat="44.08491" lon="5.15435">
        <ele>247</ele>
        <time>2025-11-11T17:37:10Z</time>
      </trkpt>
      <trkpt lat="44.08504" lon="5.15459">
        <ele>248</ele>
        <time>2025-11-11T17:37:14Z</time>
      </trkpt>
      <trkpt lat="44.08503" lon="5.15508">
        <ele>251</ele>
        <time>2025-11-11T17:37:20Z</time>
      </trkpt>
      <trkpt lat="44.08511" lon="5.15563">
        <ele>251</ele>
        <time>2025-11-11T17:37:28Z</time>
      </trkpt>
      <trkpt lat="44.08502" lon="5.15627">
        <ele>252</ele>
        <time>2025-11-11T17:37:36Z</time>
      </trkpt>
      <trkpt lat="44.08508" lon="5.15636">
        <ele>252</ele>
        <time>2025-11-11T17:37:38Z</time>
      </trkpt>
      <trkpt lat="44.0856" lon="5.15626">
        <ele>250</ele>
        <time>2025-11-11T17:37:47Z</time>
      </trkpt>
      <trkpt lat="44.08593" lon="5.15613">
        <ele>249</ele>
        <time>2025-11-11T17:37:53Z</time>
      </trkpt>
      <trkpt lat="44.08627" lon="5.15618">
        <ele>251</ele>
        <time>2025-11-11T17:37:59Z</time>
      </trkpt>
      <trkpt lat="44.08643" lon="5.15611">
        <ele>251</ele>
        <time>2025-11-11T17:38:02Z</time>
      </trkpt>
      <trkpt lat="44.08649" lon="5.15587">
        <ele>251</ele>
        <time>2025-11-11T17:38:05Z</time>
      </trkpt>
      <trkpt lat="44.08654" lon="5.15441">
        <ele>249</ele>
        <time>2025-11-11T17:38:24Z</time>
      </trkpt>
      <trkpt lat="44.08649" lon="5.15395">
        <ele>247</ele>
        <time>2025-11-11T17:38:30Z</time>
      </trkpt>
      <trkpt lat="44.08635" lon="5.15362">
        <ele>244</ele>
        <time>2025-11-11T17:38:35Z</time>
      </trkpt>
      <trkpt lat="44.08634" lon="5.15329">
        <ele>242</ele>
        <time>2025-11-11T17:38:39Z</time>
      </trkpt>
      <trkpt lat="44.08657" lon="5.15303">
        <ele>243</ele>
        <time>2025-11-11T17:38:44Z</time>
      </trkpt>
      <trkpt lat="44.08694" lon="5.15295">
        <ele>244</ele>
        <time>2025-11-11T17:38:51Z</time>
      </trkpt>
      <trkpt lat="44.08717" lon="5.15278">
        <ele>244</ele>
        <time>2025-11-11T17:38:56Z</time>
      </trkpt>
      <trkpt lat="44.08762" lon="5.15214">
        <ele>239</ele>
        <time>2025-11-11T17:39:07Z</time>
      </trkpt>
      <trkpt lat="44.08763" lon="5.15182">
        <ele>236</ele>
        <time>2025-11-11T17:39:11Z</time>
      </trkpt>
      <trkpt lat="44.08753" lon="5.15121">
        <ele>232</ele>
        <time>2025-11-11T17:39:19Z</time>
      </trkpt>
      <trkpt lat="44.08748" lon="5.15112">
        <ele>231</ele>
        <time>2025-11-11T17:39:21Z</time>
      </trkpt>
      <trkpt lat="44.08723" lon="5.15091">
        <ele>229</ele>
        <time>2025-11-11T17:39:26Z</time>
      </trkpt>
      <trkpt lat="44.08718" lon="5.15071">
        <ele>229</ele>
        <time>2025-11-11T17:39:28Z</time>
      </trkpt>
      <trkpt lat="44.08711" lon="5.14985">
        <ele>226</ele>
        <time>2025-11-11T17:39:40Z</time>
      </trkpt>
      <trkpt lat="44.08722" lon="5.1489">
        <ele>222</ele>
        <time>2025-11-11T17:39:52Z</time>
      </trkpt>
      <trkpt lat="44.08712" lon="5.14878">
        <ele>221</ele>
        <time>2025-11-11T17:39:54Z</time>
      </trkpt>
      <trkpt lat="44.08689" lon="5.14872">
        <ele>221</ele>
        <time>2025-11-11T17:39:58Z</time>
      </trkpt>
      <trkpt lat="44.08667" lon="5.14881">
        <ele>222</ele>
        <time>2025-11-11T17:40:02Z</time>
      </trkpt>
      <trkpt lat="44.08644" lon="5.149">
        <ele>223</ele>
        <time>2025-11-11T17:40:07Z</time>
      </trkpt>
      <trkpt lat="44.08588" lon="5.14918">
        <ele>223</ele>
        <time>2025-11-11T17:40:17Z</time>
      </trkpt>
      <trkpt lat="44.0858" lon="5.14896">
        <ele>222</ele>
        <time>2025-11-11T17:40:21Z</time>
      </trkpt>
      <trkpt lat="44.08575" lon="5.14865">
        <ele>220</ele>
        <time>2025-11-11T17:40:25Z</time>
      </trkpt>
      <trkpt lat="44.08565" lon="5.14843">
        <ele>219</ele>
        <time>2025-11-11T17:40:28Z</time>
      </trkpt>
      <trkpt lat="44.08537" lon="5.14843">
        <ele>218</ele>
        <time>2025-11-11T17:40:33Z</time>
      </trkpt>
      <trkpt lat="44.08533" lon="5.14802">
        <ele>217</ele>
        <time>2025-11-11T17:40:38Z</time>
      </trkpt>
      <trkpt lat="44.08509" lon="5.1476">
        <ele>214</ele>
        <time>2025-11-11T17:40:45Z</time>
      </trkpt>
      <trkpt lat="44.08497" lon="5.14725">
        <ele>213</ele>
        <time>2025-11-11T17:40:50Z</time>
      </trkpt>
      <trkpt lat="44.08481" lon="5.14707">
        <ele>212</ele>
        <time>2025-11-11T17:40:54Z</time>
      </trkpt>
      <trkpt lat="44.08473" lon="5.14688">
        <ele>211</ele>
        <time>2025-11-11T17:40:57Z</time>
      </trkpt>
      <trkpt lat="44.08449" lon="5.14667">
        <ele>210</ele>
        <time>2025-11-11T17:41:02Z</time>
      </trkpt>
      <trkpt lat="44.08395" lon="5.14592">
        <ele>207</ele>
        <time>2025-11-11T17:41:15Z</time>
      </trkpt>
      <trkpt lat="44.08383" lon="5.14584">
        <ele>207</ele>
        <time>2025-11-11T17:41:17Z</time>
      </trkpt>
      <trkpt lat="44.08359" lon="5.14579">
        <ele>206</ele>
        <time>2025-11-11T17:41:22Z</time>
      </trkpt>
      <trkpt lat="44.08327" lon="5.14565">
        <ele>206</ele>
        <time>2025-11-11T17:41:28Z</time>
      </trkpt>
      <trkpt lat="44.08256" lon="5.14527">
        <ele>203</ele>
        <time>2025-11-11T17:41:41Z</time>
      </trkpt>
      <trkpt lat="44.08205" lon="5.14517">
        <ele>201</ele>
        <time>2025-11-11T17:41:50Z</time>
      </trkpt>
      <trkpt lat="44.08194" lon="5.14513">
        <ele>201</ele>
        <time>2025-11-11T17:41:52Z</time>
      </trkpt>
      <trkpt lat="44.08191" lon="5.14508">
        <ele>200</ele>
        <time>2025-11-11T17:41:53Z</time>
      </trkpt>
      <trkpt lat="44.08185" lon="5.14424">
        <ele>199</ele>
        <time>2025-11-11T17:42:04Z</time>
      </trkpt>
      <trkpt lat="44.08162" lon="5.14254">
        <ele>195</ele>
        <time>2025-11-11T17:42:26Z</time>
      </trkpt>
      <trkpt lat="44.08156" lon="5.14164">
        <ele>196</ele>
        <time>2025-11-11T17:42:38Z</time>
      </trkpt>
      <trkpt lat="44.08157" lon="5.14118">
        <ele>195</ele>
        <time>2025-11-11T17:42:44Z</time>
      </trkpt>
      <trkpt lat="44.08165" lon="5.14088">
        <ele>195</ele>
        <time>2025-11-11T17:42:48Z</time>
      </trkpt>
      <trkpt lat="44.08214" lon="5.13994">
        <ele>193</ele>
        <time>2025-11-11T17:43:03Z</time>
      </trkpt>
      <trkpt lat="44.08241" lon="5.13962">
        <ele>193</ele>
        <time>2025-11-11T17:43:09Z</time>
      </trkpt>
      <trkpt lat="44.08264" lon="5.13945">
        <ele>193</ele>
        <time>2025-11-11T17:43:14Z</time>
      </trkpt>
      <trkpt lat="44.08387" lon="5.13892">
        <ele>195</ele>
        <time>2025-11-11T17:43:36Z</time>
      </trkpt>
      <trkpt lat="44.08446" lon="5.13859">
        <ele>195</ele>
        <time>2025-11-11T17:43:48Z</time>
      </trkpt>
      <trkpt lat="44.08488" lon="5.13827">
        <ele>196</ele>
        <time>2025-11-11T17:43:56Z</time>
      </trkpt>
      <trkpt lat="44.08517" lon="5.13784">
        <ele>195</ele>
        <time>2025-11-11T17:44:04Z</time>
      </trkpt>
      <trkpt lat="44.0856" lon="5.13707">
        <ele>194</ele>
        <time>2025-11-11T17:44:16Z</time>
      </trkpt>
      <trkpt lat="44.08614" lon="5.13627">
        <ele>193</ele>
        <time>2025-11-11T17:44:30Z</time>
      </trkpt>
      <trkpt lat="44.08634" lon="5.1353">
        <ele>188</ele>
        <time>2025-11-11T17:44:43Z</time>
      </trkpt>
      <trkpt lat="44.08657" lon="5.13493">
        <ele>185</ele>
        <time>2025-11-11T17:44:49Z</time>
      </trkpt>
      <trkpt lat="44.08714" lon="5.13442">
        <ele>183</ele>
        <time>2025-11-11T17:45:02Z</time>
      </trkpt>
      <trkpt lat="44.08736" lon="5.13414">
        <ele>183</ele>
        <time>2025-11-11T17:45:07Z</time>
      </trkpt>
      <trkpt lat="44.08884" lon="5.13272">
        <ele>186</ele>
        <time>2025-11-11T17:45:39Z</time>
      </trkpt>
      <trkpt lat="44.08948" lon="5.13219">
        <ele>186</ele>
        <time>2025-11-11T17:45:52Z</time>
      </trkpt>
      <trkpt lat="44.09011" lon="5.13183">
        <ele>186</ele>
        <time>2025-11-11T17:46:04Z</time>
      </trkpt>
      <trkpt lat="44.09159" lon="5.13026">
        <ele>185</ele>
        <time>2025-11-11T17:46:37Z</time>
      </trkpt>
      <trkpt lat="44.09171" lon="5.1302">
        <ele>185</ele>
        <time>2025-11-11T17:46:40Z</time>
      </trkpt>
      <trkpt lat="44.09204" lon="5.1302">
        <ele>185</ele>
        <time>2025-11-11T17:46:45Z</time>
      </trkpt>
      <trkpt lat="44.09223" lon="5.13016">
        <ele>185</ele>
        <time>2025-11-11T17:46:49Z</time>
      </trkpt>
      <trkpt lat="44.09252" lon="5.13048">
        <ele>185</ele>
        <time>2025-11-11T17:46:55Z</time>
      </trkpt>
      <trkpt lat="44.09269" lon="5.13053">
        <ele>185</ele>
        <time>2025-11-11T17:46:59Z</time>
      </trkpt>
      <trkpt lat="44.09332" lon="5.1309">
        <ele>185</ele>
        <time>2025-11-11T17:47:11Z</time>
      </trkpt>
      <trkpt lat="44.09501" lon="5.1321">
        <ele>188</ele>
        <time>2025-11-11T17:47:44Z</time>
      </trkpt>
      <trkpt lat="44.09563" lon="5.13245">
        <ele>189</ele>
        <time>2025-11-11T17:47:56Z</time>
      </trkpt>
      <trkpt lat="44.09686" lon="5.13303">
        <ele>188</ele>
        <time>2025-11-11T17:48:19Z</time>
      </trkpt>
      <trkpt lat="44.09749" lon="5.13364">
        <ele>188</ele>
        <time>2025-11-11T17:48:33Z</time>
      </trkpt>
      <trkpt lat="44.09771" lon="5.1338">
        <ele>188</ele>
        <time>2025-11-11T17:48:38Z</time>
      </trkpt>
      <trkpt lat="44.09821" lon="5.13407">
        <ele>190</ele>
        <time>2025-11-11T17:48:47Z</time>
      </trkpt>
      <trkpt lat="44.09899" lon="5.13457">
        <ele>192</ele>
        <time>2025-11-11T17:49:02Z</time>
      </trkpt>
      <trkpt lat="44.10099" lon="5.13567">
        <ele>202</ele>
        <time>2025-11-11T17:49:41Z</time>
      </trkpt>
      <trkpt lat="44.10105" lon="5.13577">
        <ele>203</ele>
        <time>2025-11-11T17:49:42Z</time>
      </trkpt>
      <trkpt lat="44.10103" lon="5.1365">
        <ele>208</ele>
        <time>2025-11-11T17:49:52Z</time>
      </trkpt>
      <trkpt lat="44.10114" lon="5.13776">
        <ele>213</ele>
        <time>2025-11-11T17:50:08Z</time>
      </trkpt>
      <trkpt lat="44.10112" lon="5.1379">
        <ele>213</ele>
        <time>2025-11-11T17:50:10Z</time>
      </trkpt>
      <trkpt lat="44.10134" lon="5.13934">
        <ele>212</ele>
        <time>2025-11-11T17:50:28Z</time>
      </trkpt>
      <trkpt lat="44.10194" lon="5.14079">
        <ele>214</ele>
        <time>2025-11-11T17:50:50Z</time>
      </trkpt>
      <trkpt lat="44.10255" lon="5.14201">
        <ele>213</ele>
        <time>2025-11-11T17:51:09Z</time>
      </trkpt>
      <trkpt lat="44.10336" lon="5.14342">
        <ele>214</ele>
        <time>2025-11-11T17:51:32Z</time>
      </trkpt>
      <trkpt lat="44.10369" lon="5.14424">
        <ele>215</ele>
        <time>2025-11-11T17:51:44Z</time>
      </trkpt>
      <trkpt lat="44.10397" lon="5.14462">
        <ele>216</ele>
        <time>2025-11-11T17:51:51Z</time>
      </trkpt>
      <trkpt lat="44.10437" lon="5.145">
        <ele>218</ele>
        <time>2025-11-11T17:51:59Z</time>
      </trkpt>
      <trkpt lat="44.10451" lon="5.14504">
        <ele>219</ele>
        <time>2025-11-11T17:52:02Z</time>
      </trkpt>
      <trkpt lat="44.10455" lon="5.1451">
        <ele>220</ele>
        <time>2025-11-11T17:52:03Z</time>
      </trkpt>
      <trkpt lat="44.10459" lon="5.14533">
        <ele>221</ele>
        <time>2025-11-11T17:52:06Z</time>
      </trkpt>
      <trkpt lat="44.10476" lon="5.14572">
        <ele>223</ele>
        <time>2025-11-11T17:52:12Z</time>
      </trkpt>
      <trkpt lat="44.10487" lon="5.14699">
        <ele>226</ele>
        <time>2025-11-11T17:52:28Z</time>
      </trkpt>
      <trkpt lat="44.10522" lon="5.14873">
        <ele>226</ele>
        <time>2025-11-11T17:52:51Z</time>
      </trkpt>
      <trkpt lat="44.10564" lon="5.14908">
        <ele>229</ele>
        <time>2025-11-11T17:53:00Z</time>
      </trkpt>
      <trkpt lat="44.10622" lon="5.14987">
        <ele>231</ele>
        <time>2025-11-11T17:53:14Z</time>
      </trkpt>
      <trkpt lat="44.10693" lon="5.15058">
        <ele>234</ele>
        <time>2025-11-11T17:53:30Z</time>
      </trkpt>
      <trkpt lat="44.10734" lon="5.15089">
        <ele>233</ele>
        <time>2025-11-11T17:53:38Z</time>
      </trkpt>
      <trkpt lat="44.10783" lon="5.15113">
        <ele>236</ele>
        <time>2025-11-11T17:53:48Z</time>
      </trkpt>
      <trkpt lat="44.10803" lon="5.15133">
        <ele>237</ele>
        <time>2025-11-11T17:53:52Z</time>
      </trkpt>
      <trkpt lat="44.10832" lon="5.15177">
        <ele>237</ele>
        <time>2025-11-11T17:54:00Z</time>
      </trkpt>
      <trkpt lat="44.10838" lon="5.15206">
        <ele>238</ele>
        <time>2025-11-11T17:54:03Z</time>
      </trkpt>
      <trkpt lat="44.1084" lon="5.15244">
        <ele>238</ele>
        <time>2025-11-11T17:54:08Z</time>
      </trkpt>
      <trkpt lat="44.10852" lon="5.15263">
        <ele>239</ele>
        <time>2025-11-11T17:54:12Z</time>
      </trkpt>
      <trkpt lat="44.10894" lon="5.15291">
        <ele>240</ele>
        <time>2025-11-11T17:54:20Z</time>
      </trkpt>
      <trkpt lat="44.1094" lon="5.15295">
        <ele>241</ele>
        <time>2025-11-11T17:54:28Z</time>
      </trkpt>
      <trkpt lat="44.1097" lon="5.15304">
        <ele>241</ele>
        <time>2025-11-11T17:54:34Z</time>
      </trkpt>
      <trkpt lat="44.10979" lon="5.15313">
        <ele>241</ele>
        <time>2025-11-11T17:54:35Z</time>
      </trkpt>
      <trkpt lat="44.10996" lon="5.15349">
        <ele>243</ele>
        <time>2025-11-11T17:54:41Z</time>
      </trkpt>
      <trkpt lat="44.10979" lon="5.15386">
        <ele>243</ele>
        <time>2025-11-11T17:54:47Z</time>
      </trkpt>
      <trkpt lat="44.10981" lon="5.15404">
        <ele>244</ele>
        <time>2025-11-11T17:54:49Z</time>
      </trkpt>
      <trkpt lat="44.10985" lon="5.15409">
        <ele>245</ele>
        <time>2025-11-11T17:54:50Z</time>
      </trkpt>
      <trkpt lat="44.11062" lon="5.15397">
        <ele>246</ele>
        <time>2025-11-11T17:55:04Z</time>
      </trkpt>
      <trkpt lat="44.11069" lon="5.15391">
        <ele>246</ele>
        <time>2025-11-11T17:55:05Z</time>
      </trkpt>
      <trkpt lat="44.11073" lon="5.15393">
        <ele>246</ele>
        <time>2025-11-11T17:55:06Z</time>
      </trkpt>
      <trkpt lat="44.11116" lon="5.15382">
        <ele>247</ele>
        <time>2025-11-11T17:55:14Z</time>
      </trkpt>
      <trkpt lat="44.11161" lon="5.15378">
        <ele>248</ele>
        <time>2025-11-11T17:55:22Z</time>
      </trkpt>
      <trkpt lat="44.11233" lon="5.15384">
        <ele>252</ele>
        <time>2025-11-11T17:55:35Z</time>
      </trkpt>
      <trkpt lat="44.11243" lon="5.15392">
        <ele>252</ele>
        <time>2025-11-11T17:55:37Z</time>
      </trkpt>
      <trkpt lat="44.11245" lon="5.15426">
        <ele>253</ele>
        <time>2025-11-11T17:55:41Z</time>
      </trkpt>
      <trkpt lat="44.11217" lon="5.15608">
        <ele>250</ele>
        <time>2025-11-11T17:56:05Z</time>
      </trkpt>
      <trkpt lat="44.1122" lon="5.15671">
        <ele>250</ele>
        <time>2025-11-11T17:56:13Z</time>
      </trkpt>
      <trkpt lat="44.11218" lon="5.15676">
        <ele>250</ele>
        <time>2025-11-11T17:56:14Z</time>
      </trkpt>
      <trkpt lat="44.11202" lon="5.15684">
        <ele>249</ele>
        <time>2025-11-11T17:56:17Z</time>
      </trkpt>
      <trkpt lat="44.11199" lon="5.15692">
        <ele>249</ele>
        <time>2025-11-11T17:56:18Z</time>
      </trkpt>
      <trkpt lat="44.11181" lon="5.15851">
        <ele>251</ele>
        <time>2025-11-11T17:56:38Z</time>
      </trkpt>
      <trkpt lat="44.11184" lon="5.15862">
        <ele>251</ele>
        <time>2025-11-11T17:56:40Z</time>
      </trkpt>
      <trkpt lat="44.11273" lon="5.15886">
        <ele>252</ele>
        <time>2025-11-11T17:56:56Z</time>
      </trkpt>
      <trkpt lat="44.11343" lon="5.15883">
        <ele>253</ele>
        <time>2025-11-11T17:57:08Z</time>
      </trkpt>
      <trkpt lat="44.11368" lon="5.15887">
        <ele>254</ele>
        <time>2025-11-11T17:57:13Z</time>
      </trkpt>
      <trkpt lat="44.11378" lon="5.15904">
        <ele>254</ele>
        <time>2025-11-11T17:57:16Z</time>
      </trkpt>
      <trkpt lat="44.11395" lon="5.15915">
        <ele>255</ele>
        <time>2025-11-11T17:57:19Z</time>
      </trkpt>
      <trkpt lat="44.1151" lon="5.15949">
        <ele>260</ele>
        <time>2025-11-11T17:57:40Z</time>
      </trkpt>
      <trkpt lat="44.1154" lon="5.15962">
        <ele>262</ele>
        <time>2025-11-11T17:57:45Z</time>
      </trkpt>
      <trkpt lat="44.11552" lon="5.15973">
        <ele>263</ele>
        <time>2025-11-11T17:57:48Z</time>
      </trkpt>
      <trkpt lat="44.1163" lon="5.15985">
        <ele>267</ele>
        <time>2025-11-11T17:58:02Z</time>
      </trkpt>
      <trkpt lat="44.11655" lon="5.15995">
        <ele>269</ele>
        <time>2025-11-11T17:58:07Z</time>
      </trkpt>
      <trkpt lat="44.11661" lon="5.16003">
        <ele>269</ele>
        <time>2025-11-11T17:58:08Z</time>
      </trkpt>
      <trkpt lat="44.11666" lon="5.16031">
        <ele>270</ele>
        <time>2025-11-11T17:58:12Z</time>
      </trkpt>
      <trkpt lat="44.11669" lon="5.16036">
        <ele>270</ele>
        <time>2025-11-11T17:58:13Z</time>
      </trkpt>
      <trkpt lat="44.1168" lon="5.1604">
        <ele>271</ele>
        <time>2025-11-11T17:58:15Z</time>
      </trkpt>
      <trkpt lat="44.11713" lon="5.16044">
        <ele>273</ele>
        <time>2025-11-11T17:58:21Z</time>
      </trkpt>
      <trkpt lat="44.11761" lon="5.16031">
        <ele>277</ele>
        <time>2025-11-11T17:58:29Z</time>
      </trkpt>
      <trkpt lat="44.11772" lon="5.16037">
        <ele>278</ele>
        <time>2025-11-11T17:58:31Z</time>
      </trkpt>
      <trkpt lat="44.11775" lon="5.16054">
        <ele>279</ele>
        <time>2025-11-11T17:58:34Z</time>
      </trkpt>
      <trkpt lat="44.11773" lon="5.16106">
        <ele>279</ele>
        <time>2025-11-11T17:58:40Z</time>
      </trkpt>
      <trkpt lat="44.11741" lon="5.16205">
        <ele>277</ele>
        <time>2025-11-11T17:58:54Z</time>
      </trkpt>
      <trkpt lat="44.11731" lon="5.16271">
        <ele>276</ele>
        <time>2025-11-11T17:59:03Z</time>
      </trkpt>
      <trkpt lat="44.11723" lon="5.16425">
        <ele>275</ele>
        <time>2025-11-11T17:59:22Z</time>
      </trkpt>
      <trkpt lat="44.11724" lon="5.16482">
        <ele>275</ele>
        <time>2025-11-11T17:59:30Z</time>
      </trkpt>
      <trkpt lat="44.11731" lon="5.16512">
        <ele>275</ele>
        <time>2025-11-11T17:59:34Z</time>
      </trkpt>
      <trkpt lat="44.11745" lon="5.16538">
        <ele>276</ele>
        <time>2025-11-11T17:59:38Z</time>
      </trkpt>
      <trkpt lat="44.11789" lon="5.16577">
        <ele>278</ele>
        <time>2025-11-11T17:59:47Z</time>
      </trkpt>
      <trkpt lat="44.11812" lon="5.16604">
        <ele>280</ele>
        <time>2025-11-11T17:59:53Z</time>
      </trkpt>
      <trkpt lat="44.11847" lon="5.16702">
        <ele>281</ele>
        <time>2025-11-11T18:00:07Z</time>
      </trkpt>
      <trkpt lat="44.11871" lon="5.16741">
        <ele>282</ele>
        <time>2025-11-11T18:00:13Z</time>
      </trkpt>
      <trkpt lat="44.1187" lon="5.16748">
        <ele>282</ele>
        <time>2025-11-11T18:00:14Z</time>
      </trkpt>
      <trkpt lat="44.1186" lon="5.16752">
        <ele>282</ele>
        <time>2025-11-11T18:00:16Z</time>
      </trkpt>
      <trkpt lat="44.1183" lon="5.16754">
        <ele>281</ele>
        <time>2025-11-11T18:00:21Z</time>
      </trkpt>
      <trkpt lat="44.11781" lon="5.16768">
        <ele>279</ele>
        <time>2025-11-11T18:00:30Z</time>
      </trkpt>
      <trkpt lat="44.11765" lon="5.16769">
        <ele>279</ele>
        <time>2025-11-11T18:00:33Z</time>
      </trkpt>
      <trkpt lat="44.11758" lon="5.16777">
        <ele>279</ele>
        <time>2025-11-11T18:00:35Z</time>
      </trkpt>
      <trkpt lat="44.11753" lon="5.16836">
        <ele>280</ele>
        <time>2025-11-11T18:00:42Z</time>
      </trkpt>
      <trkpt lat="44.11765" lon="5.16892">
        <ele>283</ele>
        <time>2025-11-11T18:00:50Z</time>
      </trkpt>
      <trkpt lat="44.11781" lon="5.16911">
        <ele>283</ele>
        <time>2025-11-11T18:00:53Z</time>
      </trkpt>
      <trkpt lat="44.11835" lon="5.16943">
        <ele>282</ele>
        <time>2025-11-11T18:01:04Z</time>
      </trkpt>
      <trkpt lat="44.11844" lon="5.16958">
        <ele>281</ele>
        <time>2025-11-11T18:01:06Z</time>
      </trkpt>
      <trkpt lat="44.1183" lon="5.17003">
        <ele>281</ele>
        <time>2025-11-11T18:01:13Z</time>
      </trkpt>
      <trkpt lat="44.11816" lon="5.17028">
        <ele>281</ele>
        <time>2025-11-11T18:01:17Z</time>
      </trkpt>
      <trkpt lat="44.11814" lon="5.17054">
        <ele>280</ele>
        <time>2025-11-11T18:01:20Z</time>
      </trkpt>
      <trkpt lat="44.11787" lon="5.17101">
        <ele>280</ele>
        <time>2025-11-11T18:01:28Z</time>
      </trkpt>
      <trkpt lat="44.11783" lon="5.17122">
        <ele>280</ele>
        <time>2025-11-11T18:01:30Z</time>
      </trkpt>
      <trkpt lat="44.11792" lon="5.17141">
        <ele>280</ele>
        <time>2025-11-11T18:01:33Z</time>
      </trkpt>
      <trkpt lat="44.11821" lon="5.17175">
        <ele>281</ele>
        <time>2025-11-11T18:01:40Z</time>
      </trkpt>
      <trkpt lat="44.11851" lon="5.17192">
        <ele>281</ele>
        <time>2025-11-11T18:01:46Z</time>
      </trkpt>
      <trkpt lat="44.11861" lon="5.17202">
        <ele>281</ele>
        <time>2025-11-11T18:01:48Z</time>
      </trkpt>
      <trkpt lat="44.11921" lon="5.17284">
        <ele>283</ele>
        <time>2025-11-11T18:02:03Z</time>
      </trkpt>
      <trkpt lat="44.11922" lon="5.17293">
        <ele>284</ele>
        <time>2025-11-11T18:02:04Z</time>
      </trkpt>
      <trkpt lat="44.11902" lon="5.17331">
        <ele>285</ele>
        <time>2025-11-11T18:02:10Z</time>
      </trkpt>
      <trkpt lat="44.11888" lon="5.17383">
        <ele>285</ele>
        <time>2025-11-11T18:02:17Z</time>
      </trkpt>
      <trkpt lat="44.11892" lon="5.17395">
        <ele>285</ele>
        <time>2025-11-11T18:02:19Z</time>
      </trkpt>
      <trkpt lat="44.11944" lon="5.17442">
        <ele>286</ele>
        <time>2025-11-11T18:02:30Z</time>
      </trkpt>
      <trkpt lat="44.12024" lon="5.17489">
        <ele>287</ele>
        <time>2025-11-11T18:02:45Z</time>
      </trkpt>
      <trkpt lat="44.12032" lon="5.1749">
        <ele>287</ele>
        <time>2025-11-11T18:02:47Z</time>
      </trkpt>
      <trkpt lat="44.12058" lon="5.17465">
        <ele>288</ele>
        <time>2025-11-11T18:02:52Z</time>
      </trkpt>
      <trkpt lat="44.12151" lon="5.17415">
        <ele>289</ele>
        <time>2025-11-11T18:03:10Z</time>
      </trkpt>
      <trkpt lat="44.12161" lon="5.17413">
        <ele>289</ele>
        <time>2025-11-11T18:03:12Z</time>
      </trkpt>
      <trkpt lat="44.12164" lon="5.17416">
        <ele>289</ele>
        <time>2025-11-11T18:03:13Z</time>
      </trkpt>
      <trkpt lat="44.12232" lon="5.17692">
        <ele>299</ele>
        <time>2025-11-11T18:03:50Z</time>
      </trkpt>
      <trkpt lat="44.12235" lon="5.17741">
        <ele>301</ele>
        <time>2025-11-11T18:03:56Z</time>
      </trkpt>
      <trkpt lat="44.12242" lon="5.17744">
        <ele>302</ele>
        <time>2025-11-11T18:03:57Z</time>
      </trkpt>
      <trkpt lat="44.12309" lon="5.17707">
        <ele>307</ele>
        <time>2025-11-11T18:04:10Z</time>
      </trkpt>
      <trkpt lat="44.12318" lon="5.17706">
        <ele>308</ele>
        <time>2025-11-11T18:04:12Z</time>
      </trkpt>
      <trkpt lat="44.1232" lon="5.17709">
        <ele>309</ele>
        <time>2025-11-11T18:04:12Z</time>
      </trkpt>
      <trkpt lat="44.12319" lon="5.17739">
        <ele>312</ele>
        <time>2025-11-11T18:04:16Z</time>
      </trkpt>
      <trkpt lat="44.12302" lon="5.17772">
        <ele>312</ele>
        <time>2025-11-11T18:04:21Z</time>
      </trkpt>
      <trkpt lat="44.12302" lon="5.1781">
        <ele>314</ele>
        <time>2025-11-11T18:04:26Z</time>
      </trkpt>
      <trkpt lat="44.12307" lon="5.17827">
        <ele>316</ele>
        <time>2025-11-11T18:04:29Z</time>
      </trkpt>
      <trkpt lat="44.12393" lon="5.17752">
        <ele>323</ele>
        <time>2025-11-11T18:04:47Z</time>
      </trkpt>
      <trkpt lat="44.12459" lon="5.17709">
        <ele>329</ele>
        <time>2025-11-11T18:05:00Z</time>
      </trkpt>
      <trkpt lat="44.12494" lon="5.17652">
        <ele>332</ele>
        <time>2025-11-11T18:05:09Z</time>
      </trkpt>
      <trkpt lat="44.12506" lon="5.1764">
        <ele>333</ele>
        <time>2025-11-11T18:05:12Z</time>
      </trkpt>
      <trkpt lat="44.12533" lon="5.17631">
        <ele>333</ele>
        <time>2025-11-11T18:05:17Z</time>
      </trkpt>
      <trkpt lat="44.12577" lon="5.17638">
        <ele>334</ele>
        <time>2025-11-11T18:05:25Z</time>
      </trkpt>
      <trkpt lat="44.12611" lon="5.17631">
        <ele>333</ele>
        <time>2025-11-11T18:05:31Z</time>
      </trkpt>
      <trkpt lat="44.12658" lon="5.17606">
        <ele>333</ele>
        <time>2025-11-11T18:05:40Z</time>
      </trkpt>
      <trkpt lat="44.12717" lon="5.17536">
        <ele>332</ele>
        <time>2025-11-11T18:05:54Z</time>
      </trkpt>
      <trkpt lat="44.12733" lon="5.17495">
        <ele>330</ele>
        <time>2025-11-11T18:06:00Z</time>
      </trkpt>
      <trkpt lat="44.12742" lon="5.17453">
        <ele>328</ele>
        <time>2025-11-11T18:06:05Z</time>
      </trkpt>
      <trkpt lat="44.12741" lon="5.17422">
        <ele>329</ele>
        <time>2025-11-11T18:06:09Z</time>
      </trkpt>
      <trkpt lat="44.1275" lon="5.17302">
        <ele>322</ele>
        <time>2025-11-11T18:06:24Z</time>
      </trkpt>
      <trkpt lat="44.12764" lon="5.17269">
        <ele>319</ele>
        <time>2025-11-11T18:06:29Z</time>
      </trkpt>
      <trkpt lat="44.12795" lon="5.17219">
        <ele>319</ele>
        <time>2025-11-11T18:06:38Z</time>
      </trkpt>
      <trkpt lat="44.12881" lon="5.17096">
        <ele>325</ele>
        <time>2025-11-11T18:07:00Z</time>
      </trkpt>
      <trkpt lat="44.12892" lon="5.17075">
        <ele>325</ele>
        <time>2025-11-11T18:07:03Z</time>
      </trkpt>
      <trkpt lat="44.12931" lon="5.16952">
        <ele>327</ele>
        <time>2025-11-11T18:07:20Z</time>
      </trkpt>
      <trkpt lat="44.12974" lon="5.16849">
        <ele>328</ele>
        <time>2025-11-11T18:07:35Z</time>
      </trkpt>
      <trkpt lat="44.12997" lon="5.16742">
        <ele>330</ele>
        <time>2025-11-11T18:07:50Z</time>
      </trkpt>
      <trkpt lat="44.13071" lon="5.16577">
        <ele>336</ele>
        <time>2025-11-11T18:08:15Z</time>
      </trkpt>
      <trkpt lat="44.13088" lon="5.16487">
        <ele>336</ele>
        <time>2025-11-11T18:08:26Z</time>
      </trkpt>
      <trkpt lat="44.13098" lon="5.16474">
        <ele>335</ele>
        <time>2025-11-11T18:08:29Z</time>
      </trkpt>
      <trkpt lat="44.13193" lon="5.16402">
        <ele>328</ele>
        <time>2025-11-11T18:08:48Z</time>
      </trkpt>
      <trkpt lat="44.13274" lon="5.16362">
        <ele>328</ele>
        <time>2025-11-11T18:09:03Z</time>
      </trkpt>
      <trkpt lat="44.13279" lon="5.16347">
        <ele>327</ele>
        <time>2025-11-11T18:09:06Z</time>
      </trkpt>
      <trkpt lat="44.13258" lon="5.16328">
        <ele>325</ele>
        <time>2025-11-11T18:09:10Z</time>
      </trkpt>
      <trkpt lat="44.13252" lon="5.16316">
        <ele>326</ele>
        <time>2025-11-11T18:09:12Z</time>
      </trkpt>
      <trkpt lat="44.13254" lon="5.16304">
        <ele>327</ele>
        <time>2025-11-11T18:09:13Z</time>
      </trkpt>
      <trkpt lat="44.13266" lon="5.16282">
        <ele>330</ele>
        <time>2025-11-11T18:09:17Z</time>
      </trkpt>
      <trkpt lat="44.13283" lon="5.16262">
        <ele>334</ele>
        <time>2025-11-11T18:09:21Z</time>
      </trkpt>
      <trkpt lat="44.1331" lon="5.16242">
        <ele>339</ele>
        <time>2025-11-11T18:09:26Z</time>
      </trkpt>
      <trkpt lat="44.1333" lon="5.16215">
        <ele>344</ele>
        <time>2025-11-11T18:09:31Z</time>
      </trkpt>
      <trkpt lat="44.1336" lon="5.16188">
        <ele>349</ele>
        <time>2025-11-11T18:09:38Z</time>
      </trkpt>
      <trkpt lat="44.1338" lon="5.16177">
        <ele>352</ele>
        <time>2025-11-11T18:09:42Z</time>
      </trkpt>
      <trkpt lat="44.13459" lon="5.16096">
        <ele>359</ele>
        <time>2025-11-11T18:09:59Z</time>
      </trkpt>
      <trkpt lat="44.13475" lon="5.16087">
        <ele>360</ele>
        <time>2025-11-11T18:10:02Z</time>
      </trkpt>
      <trkpt lat="44.13519" lon="5.16078">
        <ele>361</ele>
        <time>2025-11-11T18:10:10Z</time>
      </trkpt>
      <trkpt lat="44.13528" lon="5.16071">
        <ele>361</ele>
        <time>2025-11-11T18:10:12Z</time>
      </trkpt>
      <trkpt lat="44.13569" lon="5.16001">
        <ele>358</ele>
        <time>2025-11-11T18:10:23Z</time>
      </trkpt>
      <trkpt lat="44.13588" lon="5.15952">
        <ele>356</ele>
        <time>2025-11-11T18:10:30Z</time>
      </trkpt>
      <trkpt lat="44.13598" lon="5.1591">
        <ele>356</ele>
        <time>2025-11-11T18:10:36Z</time>
      </trkpt>
      <trkpt lat="44.13593" lon="5.15899">
        <ele>353</ele>
        <time>2025-11-11T18:10:38Z</time>
      </trkpt>
      <trkpt lat="44.13553" lon="5.15882">
        <ele>347</ele>
        <time>2025-11-11T18:10:45Z</time>
      </trkpt>
      <trkpt lat="44.13546" lon="5.15874">
        <ele>346</ele>
        <time>2025-11-11T18:10:47Z</time>
      </trkpt>
      <trkpt lat="44.13517" lon="5.15818">
        <ele>339</ele>
        <time>2025-11-11T18:10:56Z</time>
      </trkpt>
      <trkpt lat="44.13468" lon="5.15741">
        <ele>331</ele>
        <time>2025-11-11T18:11:09Z</time>
      </trkpt>
      <trkpt lat="44.13464" lon="5.15739">
        <ele>331</ele>
        <time>2025-11-11T18:11:10Z</time>
      </trkpt>
      <trkpt lat="44.13442" lon="5.15754">
        <ele>329</ele>
        <time>2025-11-11T18:11:14Z</time>
      </trkpt>
      <trkpt lat="44.13436" lon="5.15753">
        <ele>329</ele>
        <time>2025-11-11T18:11:15Z</time>
      </trkpt>
      <trkpt lat="44.13421" lon="5.15733">
        <ele>327</ele>
        <time>2025-11-11T18:11:19Z</time>
      </trkpt>
      <trkpt lat="44.13411" lon="5.15708">
        <ele>326</ele>
        <time>2025-11-11T18:11:22Z</time>
      </trkpt>
      <trkpt lat="44.1334" lon="5.15674">
        <ele>320</ele>
        <time>2025-11-11T18:11:36Z</time>
      </trkpt>
      <trkpt lat="44.13306" lon="5.15634">
        <ele>319</ele>
        <time>2025-11-11T18:11:44Z</time>
      </trkpt>
      <trkpt lat="44.13291" lon="5.15604">
        <ele>318</ele>
        <time>2025-11-11T18:11:48Z</time>
      </trkpt>
      <trkpt lat="44.13273" lon="5.15591">
        <ele>317</ele>
        <time>2025-11-11T18:11:52Z</time>
      </trkpt>
      <trkpt lat="44.13265" lon="5.1559">
        <ele>317</ele>
        <time>2025-11-11T18:11:53Z</time>
      </trkpt>
      <trkpt lat="44.13255" lon="5.156">
        <ele>317</ele>
        <time>2025-11-11T18:11:55Z</time>
      </trkpt>
      <trkpt lat="44.13247" lon="5.15625">
        <ele>317</ele>
        <time>2025-11-11T18:11:59Z</time>
      </trkpt>
      <trkpt lat="44.13218" lon="5.15666">
        <ele>315</ele>
        <time>2025-11-11T18:12:06Z</time>
      </trkpt>
      <trkpt lat="44.13208" lon="5.15743">
        <ele>319</ele>
        <time>2025-11-11T18:12:16Z</time>
      </trkpt>
      <trkpt lat="44.13192" lon="5.15798">
        <ele>320</ele>
        <time>2025-11-11T18:12:24Z</time>
      </trkpt>
      <trkpt lat="44.13182" lon="5.15818">
        <ele>320</ele>
        <time>2025-11-11T18:12:27Z</time>
      </trkpt>
      <trkpt lat="44.13142" lon="5.15882">
        <ele>320</ele>
        <time>2025-11-11T18:12:38Z</time>
      </trkpt>
      <trkpt lat="44.13111" lon="5.15942">
        <ele>319</ele>
        <time>2025-11-11T18:12:47Z</time>
      </trkpt>
      <trkpt lat="44.13068" lon="5.15971">
        <ele>315</ele>
        <time>2025-11-11T18:12:56Z</time>
      </trkpt>
      <trkpt lat="44.13055" lon="5.15985">
        <ele>314</ele>
        <time>2025-11-11T18:12:59Z</time>
      </trkpt>
      <trkpt lat="44.13018" lon="5.16054">
        <ele>314</ele>
        <time>2025-11-11T18:13:10Z</time>
      </trkpt>
      <trkpt lat="44.13004" lon="5.16073">
        <ele>312</ele>
        <time>2025-11-11T18:13:13Z</time>
      </trkpt>
      <trkpt lat="44.12978" lon="5.16128">
        <ele>311</ele>
        <time>2025-11-11T18:13:22Z</time>
      </trkpt>
      <trkpt lat="44.12943" lon="5.16176">
        <ele>310</ele>
        <time>2025-11-11T18:13:30Z</time>
      </trkpt>
      <trkpt lat="44.12921" lon="5.16318">
        <ele>313</ele>
        <time>2025-11-11T18:13:49Z</time>
      </trkpt>
      <trkpt lat="44.12909" lon="5.16349">
        <ele>315</ele>
        <time>2025-11-11T18:13:53Z</time>
      </trkpt>
      <trkpt lat="44.12869" lon="5.16415">
        <ele>318</ele>
        <time>2025-11-11T18:14:04Z</time>
      </trkpt>
      <trkpt lat="44.12785" lon="5.16485">
        <ele>314</ele>
        <time>2025-11-11T18:14:22Z</time>
      </trkpt>
      <trkpt lat="44.12732" lon="5.16516">
        <ele>311</ele>
        <time>2025-11-11T18:14:32Z</time>
      </trkpt>
      <trkpt lat="44.12686" lon="5.16553">
        <ele>308</ele>
        <time>2025-11-11T18:14:41Z</time>
      </trkpt>
      <trkpt lat="44.12639" lon="5.16603">
        <ele>306</ele>
        <time>2025-11-11T18:14:52Z</time>
      </trkpt>
      <trkpt lat="44.12613" lon="5.16639">
        <ele>304</ele>
        <time>2025-11-11T18:14:59Z</time>
      </trkpt>
      <trkpt lat="44.12582" lon="5.16693">
        <ele>302</ele>
        <time>2025-11-11T18:15:07Z</time>
      </trkpt>
      <trkpt lat="44.12565" lon="5.16712">
        <ele>301</ele>
        <time>2025-11-11T18:15:11Z</time>
      </trkpt>
      <trkpt lat="44.12541" lon="5.16717">
        <ele>301</ele>
        <time>2025-11-11T18:15:16Z</time>
      </trkpt>
      <trkpt lat="44.12482" lon="5.16706">
        <ele>299</ele>
        <time>2025-11-11T18:15:26Z</time>
      </trkpt>
      <trkpt lat="44.12434" lon="5.16703">
        <ele>298</ele>
        <time>2025-11-11T18:15:35Z</time>
      </trkpt>
      <trkpt lat="44.12405" lon="5.16713">
        <ele>297</ele>
        <time>2025-11-11T18:15:40Z</time>
      </trkpt>
      <trkpt lat="44.12392" lon="5.16724">
        <ele>296</ele>
        <time>2025-11-11T18:15:43Z</time>
      </trkpt>
      <trkpt lat="44.12379" lon="5.16745">
        <ele>296</ele>
        <time>2025-11-11T18:15:46Z</time>
      </trkpt>
      <trkpt lat="44.12368" lon="5.16786">
        <ele>294</ele>
        <time>2025-11-11T18:15:52Z</time>
      </trkpt>
      <trkpt lat="44.12355" lon="5.16812">
        <ele>293</ele>
        <time>2025-11-11T18:15:56Z</time>
      </trkpt>
      <trkpt lat="44.12289" lon="5.1687">
        <ele>292</ele>
        <time>2025-11-11T18:16:10Z</time>
      </trkpt>
      <trkpt lat="44.12258" lon="5.16913">
        <ele>290</ele>
        <time>2025-11-11T18:16:18Z</time>
      </trkpt>
      <trkpt lat="44.12233" lon="5.16939">
        <ele>289</ele>
        <time>2025-11-11T18:16:23Z</time>
      </trkpt>
      <trkpt lat="44.12218" lon="5.16952">
        <ele>289</ele>
        <time>2025-11-11T18:16:26Z</time>
      </trkpt>
      <trkpt lat="44.12194" lon="5.16962">
        <ele>288</ele>
        <time>2025-11-11T18:16:31Z</time>
      </trkpt>
      <trkpt lat="44.12139" lon="5.16958">
        <ele>287</ele>
        <time>2025-11-11T18:16:41Z</time>
      </trkpt>
      <trkpt lat="44.12126" lon="5.16888">
        <ele>287</ele>
        <time>2025-11-11T18:16:50Z</time>
      </trkpt>
      <trkpt lat="44.12098" lon="5.168">
        <ele>286</ele>
        <time>2025-11-11T18:17:02Z</time>
      </trkpt>
      <trkpt lat="44.12086" lon="5.16576">
        <ele>288</ele>
        <time>2025-11-11T18:17:31Z</time>
      </trkpt>
      <trkpt lat="44.1207" lon="5.16434">
        <ele>289</ele>
        <time>2025-11-11T18:17:49Z</time>
      </trkpt>
      <trkpt lat="44.12075" lon="5.16394">
        <ele>288</ele>
        <time>2025-11-11T18:17:54Z</time>
      </trkpt>
      <trkpt lat="44.12064" lon="5.16326">
        <ele>286</ele>
        <time>2025-11-11T18:18:03Z</time>
      </trkpt>
      <trkpt lat="44.12025" lon="5.16199">
        <ele>290</ele>
        <time>2025-11-11T18:18:21Z</time>
      </trkpt>
      <trkpt lat="44.11987" lon="5.16157">
        <ele>294</ele>
        <time>2025-11-11T18:18:29Z</time>
      </trkpt>
      <trkpt lat="44.11967" lon="5.16126">
        <ele>296</ele>
        <time>2025-11-11T18:18:35Z</time>
      </trkpt>
      <trkpt lat="44.11944" lon="5.16015">
        <ele>296</ele>
        <time>2025-11-11T18:18:50Z</time>
      </trkpt>
      <trkpt lat="44.11941" lon="5.1597">
        <ele>296</ele>
        <time>2025-11-11T18:18:55Z</time>
      </trkpt>
      <trkpt lat="44.11923" lon="5.15892">
        <ele>294</ele>
        <time>2025-11-11T18:19:06Z</time>
      </trkpt>
      <trkpt lat="44.11945" lon="5.15814">
        <ele>295</ele>
        <time>2025-11-11T18:19:16Z</time>
      </trkpt>
      <trkpt lat="44.11942" lon="5.15783">
        <ele>296</ele>
        <time>2025-11-11T18:19:20Z</time>
      </trkpt>
      <trkpt lat="44.11926" lon="5.15751">
        <ele>295</ele>
        <time>2025-11-11T18:19:25Z</time>
      </trkpt>
      <trkpt lat="44.11925" lon="5.15732">
        <ele>295</ele>
        <time>2025-11-11T18:19:28Z</time>
      </trkpt>
      <trkpt lat="44.11936" lon="5.15682">
        <ele>295</ele>
        <time>2025-11-11T18:19:35Z</time>
      </trkpt>
      <trkpt lat="44.11949" lon="5.1557">
        <ele>289</ele>
        <time>2025-11-11T18:19:49Z</time>
      </trkpt>
      <trkpt lat="44.11955" lon="5.15394">
        <ele>281</ele>
        <time>2025-11-11T18:20:12Z</time>
      </trkpt>
      <trkpt lat="44.1196" lon="5.15363">
        <ele>281</ele>
        <time>2025-11-11T18:20:16Z</time>
      </trkpt>
      <trkpt lat="44.11968" lon="5.15222">
        <ele>282</ele>
        <time>2025-11-11T18:20:34Z</time>
      </trkpt>
      <trkpt lat="44.11966" lon="5.15171">
        <ele>282</ele>
        <time>2025-11-11T18:20:40Z</time>
      </trkpt>
      <trkpt lat="44.11946" lon="5.15112">
        <ele>280</ele>
        <time>2025-11-11T18:20:49Z</time>
      </trkpt>
      <trkpt lat="44.11939" lon="5.15059">
        <ele>279</ele>
        <time>2025-11-11T18:20:55Z</time>
      </trkpt>
      <trkpt lat="44.11935" lon="5.14952">
        <ele>277</ele>
        <time>2025-11-11T18:21:09Z</time>
      </trkpt>
      <trkpt lat="44.11938" lon="5.14893">
        <ele>275</ele>
        <time>2025-11-11T18:21:17Z</time>
      </trkpt>
      <trkpt lat="44.11935" lon="5.14872">
        <ele>274</ele>
        <time>2025-11-11T18:21:19Z</time>
      </trkpt>
      <trkpt lat="44.11959" lon="5.14814">
        <ele>274</ele>
        <time>2025-11-11T18:21:28Z</time>
      </trkpt>
      <trkpt lat="44.11971" lon="5.14718">
        <ele>274</ele>
        <time>2025-11-11T18:21:40Z</time>
      </trkpt>
      <trkpt lat="44.11981" lon="5.14671">
        <ele>274</ele>
        <time>2025-11-11T18:21:47Z</time>
      </trkpt>
      <trkpt lat="44.11988" lon="5.14597">
        <ele>279</ele>
        <time>2025-11-11T18:21:56Z</time>
      </trkpt>
      <trkpt lat="44.11987" lon="5.14564">
        <ele>283</ele>
        <time>2025-11-11T18:22:00Z</time>
      </trkpt>
      <trkpt lat="44.12006" lon="5.14455">
        <ele>293</ele>
        <time>2025-11-11T18:22:15Z</time>
      </trkpt>
      <trkpt lat="44.12009" lon="5.14382">
        <ele>299</ele>
        <time>2025-11-11T18:22:24Z</time>
      </trkpt>
      <trkpt lat="44.11999" lon="5.14386">
        <ele>299</ele>
        <time>2025-11-11T18:22:26Z</time>
      </trkpt>
      <trkpt lat="44.11982" lon="5.14412">
        <ele>302</ele>
        <time>2025-11-11T18:22:30Z</time>
      </trkpt>
      <trkpt lat="44.11978" lon="5.14409">
        <ele>303</ele>
        <time>2025-11-11T18:22:31Z</time>
      </trkpt>
      <trkpt lat="44.11997" lon="5.14364">
        <ele>302</ele>
        <time>2025-11-11T18:22:38Z</time>
      </trkpt>
      <trkpt lat="44.1201" lon="5.14245">
        <ele>301</ele>
        <time>2025-11-11T18:22:53Z</time>
      </trkpt>
      <trkpt lat="44.11983" lon="5.14158">
        <ele>300</ele>
        <time>2025-11-11T18:23:05Z</time>
      </trkpt>
      <trkpt lat="44.11951" lon="5.14082">
        <ele>299</ele>
        <time>2025-11-11T18:23:17Z</time>
      </trkpt>
      <trkpt lat="44.11932" lon="5.14057">
        <ele>299</ele>
        <time>2025-11-11T18:23:21Z</time>
      </trkpt>
      <trkpt lat="44.11881" lon="5.14013">
        <ele>299</ele>
        <time>2025-11-11T18:23:32Z</time>
      </trkpt>
      <trkpt lat="44.11941" lon="5.14072">
        <ele>299</ele>
        <time>2025-11-11T18:23:45Z</time>
      </trkpt>
      <trkpt lat="44.11968" lon="5.14125">
        <ele>300</ele>
        <time>2025-11-11T18:23:53Z</time>
      </trkpt>
      <trkpt lat="44.12005" lon="5.14227">
        <ele>301</ele>
        <time>2025-11-11T18:24:08Z</time>
      </trkpt>
      <trkpt lat="44.12008" lon="5.14251">
        <ele>301</ele>
        <time>2025-11-11T18:24:11Z</time>
      </trkpt>
      <trkpt lat="44.12" lon="5.14328">
        <ele>303</ele>
        <time>2025-11-11T18:24:21Z</time>
      </trkpt>
      <trkpt lat="44.11992" lon="5.14367">
        <ele>303</ele>
        <time>2025-11-11T18:24:26Z</time>
      </trkpt>
      <trkpt lat="44.11976" lon="5.14402">
        <ele>304</ele>
        <time>2025-11-11T18:24:31Z</time>
      </trkpt>
      <trkpt lat="44.11977" lon="5.14412">
        <ele>303</ele>
        <time>2025-11-11T18:24:33Z</time>
      </trkpt>
      <trkpt lat="44.11986" lon="5.14409">
        <ele>301</ele>
        <time>2025-11-11T18:24:34Z</time>
      </trkpt>
      <trkpt lat="44.12008" lon="5.14384">
        <ele>299</ele>
        <time>2025-11-11T18:24:39Z</time>
      </trkpt>
      <trkpt lat="44.12021" lon="5.1438">
        <ele>298</ele>
        <time>2025-11-11T18:24:42Z</time>
      </trkpt>
      <trkpt lat="44.12031" lon="5.14382">
        <ele>297</ele>
        <time>2025-11-11T18:24:44Z</time>
      </trkpt>
      <trkpt lat="44.12044" lon="5.14394">
        <ele>294</ele>
        <time>2025-11-11T18:24:46Z</time>
      </trkpt>
      <trkpt lat="44.12056" lon="5.14419">
        <ele>291</ele>
        <time>2025-11-11T18:24:50Z</time>
      </trkpt>
      <trkpt lat="44.12063" lon="5.14422">
        <ele>291</ele>
        <time>2025-11-11T18:24:52Z</time>
      </trkpt>
      <trkpt lat="44.12159" lon="5.14409">
        <ele>290</ele>
        <time>2025-11-11T18:25:09Z</time>
      </trkpt>
      <trkpt lat="44.12179" lon="5.14411">
        <ele>290</ele>
        <time>2025-11-11T18:25:12Z</time>
      </trkpt>
      <trkpt lat="44.12289" lon="5.14445">
        <ele>293</ele>
        <time>2025-11-11T18:25:32Z</time>
      </trkpt>
      <trkpt lat="44.1232" lon="5.14464">
        <ele>294</ele>
        <time>2025-11-11T18:25:38Z</time>
      </trkpt>
      <trkpt lat="44.12348" lon="5.14503">
        <ele>292</ele>
        <time>2025-11-11T18:25:45Z</time>
      </trkpt>
      <trkpt lat="44.12381" lon="5.14524">
        <ele>292</ele>
        <time>2025-11-11T18:25:52Z</time>
      </trkpt>
      <trkpt lat="44.12387" lon="5.14526">
        <ele>292</ele>
        <time>2025-11-11T18:25:53Z</time>
      </trkpt>
      <trkpt lat="44.12397" lon="5.14522">
        <ele>293</ele>
        <time>2025-11-11T18:25:55Z</time>
      </trkpt>
      <trkpt lat="44.12422" lon="5.14501">
        <ele>295</ele>
        <time>2025-11-11T18:26:00Z</time>
      </trkpt>
      <trkpt lat="44.12434" lon="5.14504">
        <ele>296</ele>
        <time>2025-11-11T18:26:02Z</time>
      </trkpt>
      <trkpt lat="44.12451" lon="5.14517">
        <ele>296</ele>
        <time>2025-11-11T18:26:06Z</time>
      </trkpt>
      <trkpt lat="44.12502" lon="5.1458">
        <ele>295</ele>
        <time>2025-11-11T18:26:18Z</time>
      </trkpt>
      <trkpt lat="44.12522" lon="5.14624">
        <ele>294</ele>
        <time>2025-11-11T18:26:24Z</time>
      </trkpt>
      <trkpt lat="44.12554" lon="5.14674">
        <ele>294</ele>
        <time>2025-11-11T18:26:33Z</time>
      </trkpt>
      <trkpt lat="44.12563" lon="5.14682">
        <ele>294</ele>
        <time>2025-11-11T18:26:35Z</time>
      </trkpt>
      <trkpt lat="44.12598" lon="5.14688">
        <ele>297</ele>
        <time>2025-11-11T18:26:41Z</time>
      </trkpt>
      <trkpt lat="44.12651" lon="5.14712">
        <ele>299</ele>
        <time>2025-11-11T18:26:51Z</time>
      </trkpt>
      <trkpt lat="44.12679" lon="5.1473">
        <ele>299</ele>
        <time>2025-11-11T18:26:57Z</time>
      </trkpt>
      <trkpt lat="44.12695" lon="5.14733">
        <ele>300</ele>
        <time>2025-11-11T18:26:59Z</time>
      </trkpt>
      <trkpt lat="44.12726" lon="5.14748">
        <ele>300</ele>
        <time>2025-11-11T18:27:05Z</time>
      </trkpt>
      <trkpt lat="44.12894" lon="5.14771">
        <ele>310</ele>
        <time>2025-11-11T18:27:35Z</time>
      </trkpt>
      <trkpt lat="44.1292" lon="5.14769">
        <ele>313</ele>
        <time>2025-11-11T18:27:40Z</time>
      </trkpt>
      <trkpt lat="44.12953" lon="5.14799">
        <ele>313</ele>
        <time>2025-11-11T18:27:47Z</time>
      </trkpt>
      <trkpt lat="44.13071" lon="5.14854">
        <ele>322</ele>
        <time>2025-11-11T18:28:09Z</time>
      </trkpt>
      <trkpt lat="44.13085" lon="5.14868">
        <ele>322</ele>
        <time>2025-11-11T18:28:12Z</time>
      </trkpt>
      <trkpt lat="44.13116" lon="5.14916">
        <ele>320</ele>
        <time>2025-11-11T18:28:20Z</time>
      </trkpt>
      <trkpt lat="44.13153" lon="5.15006">
        <ele>315</ele>
        <time>2025-11-11T18:28:34Z</time>
      </trkpt>
      <trkpt lat="44.1317" lon="5.15067">
        <ele>312</ele>
        <time>2025-11-11T18:28:42Z</time>
      </trkpt>
      <trkpt lat="44.13182" lon="5.1509">
        <ele>311</ele>
        <time>2025-11-11T18:28:46Z</time>
      </trkpt>
      <trkpt lat="44.13201" lon="5.15113">
        <ele>312</ele>
        <time>2025-11-11T18:28:50Z</time>
      </trkpt>
      <trkpt lat="44.13251" lon="5.15165">
        <ele>314</ele>
        <time>2025-11-11T18:29:01Z</time>
      </trkpt>
      <trkpt lat="44.13308" lon="5.15207">
        <ele>317</ele>
        <time>2025-11-11T18:29:13Z</time>
      </trkpt>
      <trkpt lat="44.13412" lon="5.15263">
        <ele>322</ele>
        <time>2025-11-11T18:29:33Z</time>
      </trkpt>
      <trkpt lat="44.13487" lon="5.15277">
        <ele>324</ele>
        <time>2025-11-11T18:29:46Z</time>
      </trkpt>
      <trkpt lat="44.13564" lon="5.15302">
        <ele>328</ele>
        <time>2025-11-11T18:30:00Z</time>
      </trkpt>
      <trkpt lat="44.13592" lon="5.15303">
        <ele>331</ele>
        <time>2025-11-11T18:30:05Z</time>
      </trkpt>
      <trkpt lat="44.13663" lon="5.15319">
        <ele>338</ele>
        <time>2025-11-11T18:30:18Z</time>
      </trkpt>
      <trkpt lat="44.13669" lon="5.15317">
        <ele>339</ele>
        <time>2025-11-11T18:30:19Z</time>
      </trkpt>
      <trkpt lat="44.13675" lon="5.15308">
        <ele>340</ele>
        <time>2025-11-11T18:30:20Z</time>
      </trkpt>
      <trkpt lat="44.13674" lon="5.15298">
        <ele>341</ele>
        <time>2025-11-11T18:30:22Z</time>
      </trkpt>
      <trkpt lat="44.13661" lon="5.15273">
        <ele>342</ele>
        <time>2025-11-11T18:30:26Z</time>
      </trkpt>
      <trkpt lat="44.13664" lon="5.15259">
        <ele>344</ele>
        <time>2025-11-11T18:30:28Z</time>
      </trkpt>
      <trkpt lat="44.13696" lon="5.15235">
        <ele>348</ele>
        <time>2025-11-11T18:30:34Z</time>
      </trkpt>
      <trkpt lat="44.13709" lon="5.15217">
        <ele>351</ele>
        <time>2025-11-11T18:30:37Z</time>
      </trkpt>
      <trkpt lat="44.13721" lon="5.15171">
        <ele>355</ele>
        <time>2025-11-11T18:30:44Z</time>
      </trkpt>
      <trkpt lat="44.13728" lon="5.15162">
        <ele>357</ele>
        <time>2025-11-11T18:30:45Z</time>
      </trkpt>
      <trkpt lat="44.13739" lon="5.15161">
        <ele>358</ele>
        <time>2025-11-11T18:30:47Z</time>
      </trkpt>
      <trkpt lat="44.1379" lon="5.15195">
        <ele>360</ele>
        <time>2025-11-11T18:30:57Z</time>
      </trkpt>
      <trkpt lat="44.13811" lon="5.15167">
        <ele>365</ele>
        <time>2025-11-11T18:31:02Z</time>
      </trkpt>
      <trkpt lat="44.13839" lon="5.15172">
        <ele>367</ele>
        <time>2025-11-11T18:31:07Z</time>
      </trkpt>
      <trkpt lat="44.13859" lon="5.1517">
        <ele>370</ele>
        <time>2025-11-11T18:31:11Z</time>
      </trkpt>
      <trkpt lat="44.13887" lon="5.15183">
        <ele>372</ele>
        <time>2025-11-11T18:31:16Z</time>
      </trkpt>
      <trkpt lat="44.13981" lon="5.15254">
        <ele>374</ele>
        <time>2025-11-11T18:31:35Z</time>
      </trkpt>
      <trkpt lat="44.14004" lon="5.15277">
        <ele>374</ele>
        <time>2025-11-11T18:31:40Z</time>
      </trkpt>
      <trkpt lat="44.14028" lon="5.15311">
        <ele>374</ele>
        <time>2025-11-11T18:31:46Z</time>
      </trkpt>
      <trkpt lat="44.14037" lon="5.15335">
        <ele>374</ele>
        <time>2025-11-11T18:31:50Z</time>
      </trkpt>
      <trkpt lat="44.14042" lon="5.15421">
        <ele>373</ele>
        <time>2025-11-11T18:32:01Z</time>
      </trkpt>
      <trkpt lat="44.14068" lon="5.15482">
        <ele>375</ele>
        <time>2025-11-11T18:32:10Z</time>
      </trkpt>
      <trkpt lat="44.14076" lon="5.15515">
        <ele>373</ele>
        <time>2025-11-11T18:32:14Z</time>
      </trkpt>
      <trkpt lat="44.14095" lon="5.15541">
        <ele>372</ele>
        <time>2025-11-11T18:32:19Z</time>
      </trkpt>
      <trkpt lat="44.14133" lon="5.15569">
        <ele>372</ele>
        <time>2025-11-11T18:32:27Z</time>
      </trkpt>
      <trkpt lat="44.14172" lon="5.15617">
        <ele>370</ele>
        <time>2025-11-11T18:32:36Z</time>
      </trkpt>
      <trkpt lat="44.1418" lon="5.15635">
        <ele>367</ele>
        <time>2025-11-11T18:32:39Z</time>
      </trkpt>
      <trkpt lat="44.14185" lon="5.15654">
        <ele>365</ele>
        <time>2025-11-11T18:32:41Z</time>
      </trkpt>
      <trkpt lat="44.14185" lon="5.15682">
        <ele>362</ele>
        <time>2025-11-11T18:32:45Z</time>
      </trkpt>
      <trkpt lat="44.14139" lon="5.15763">
        <ele>355</ele>
        <time>2025-11-11T18:32:58Z</time>
      </trkpt>
      <trkpt lat="44.14128" lon="5.15799">
        <ele>354</ele>
        <time>2025-11-11T18:33:03Z</time>
      </trkpt>
      <trkpt lat="44.14126" lon="5.1584">
        <ele>353</ele>
        <time>2025-11-11T18:33:08Z</time>
      </trkpt>
      <trkpt lat="44.1413" lon="5.1588">
        <ele>353</ele>
        <time>2025-11-11T18:33:14Z</time>
      </trkpt>
      <trkpt lat="44.14122" lon="5.16005">
        <ele>355</ele>
        <time>2025-11-11T18:33:30Z</time>
      </trkpt>
      <trkpt lat="44.14073" lon="5.16148">
        <ele>372</ele>
        <time>2025-11-11T18:33:50Z</time>
      </trkpt>
      <trkpt lat="44.14062" lon="5.16274">
        <ele>377</ele>
        <time>2025-11-11T18:34:06Z</time>
      </trkpt>
      <trkpt lat="44.1405" lon="5.16308">
        <ele>378</ele>
        <time>2025-11-11T18:34:11Z</time>
      </trkpt>
      <trkpt lat="44.14012" lon="5.16388">
        <ele>374</ele>
        <time>2025-11-11T18:34:23Z</time>
      </trkpt>
      <trkpt lat="44.1398" lon="5.16437">
        <ele>369</ele>
        <time>2025-11-11T18:34:32Z</time>
      </trkpt>
      <trkpt lat="44.13931" lon="5.16483">
        <ele>362</ele>
        <time>2025-11-11T18:34:42Z</time>
      </trkpt>
      <trkpt lat="44.13926" lon="5.16493">
        <ele>359</ele>
        <time>2025-11-11T18:34:44Z</time>
      </trkpt>
      <trkpt lat="44.13949" lon="5.16522">
        <ele>356</ele>
        <time>2025-11-11T18:34:49Z</time>
      </trkpt>
      <trkpt lat="44.14007" lon="5.16572">
        <ele>356</ele>
        <time>2025-11-11T18:35:01Z</time>
      </trkpt>
      <trkpt lat="44.14026" lon="5.16578">
        <ele>356</ele>
        <time>2025-11-11T18:35:05Z</time>
      </trkpt>
      <trkpt lat="44.14061" lon="5.16576">
        <ele>356</ele>
        <time>2025-11-11T18:35:11Z</time>
      </trkpt>
      <trkpt lat="44.14068" lon="5.16579">
        <ele>356</ele>
        <time>2025-11-11T18:35:12Z</time>
      </trkpt>
      <trkpt lat="44.14076" lon="5.16592">
        <ele>356</ele>
        <time>2025-11-11T18:35:14Z</time>
      </trkpt>
      <trkpt lat="44.1408" lon="5.16622">
        <ele>355</ele>
        <time>2025-11-11T18:35:18Z</time>
      </trkpt>
      <trkpt lat="44.14079" lon="5.1666">
        <ele>353</ele>
        <time>2025-11-11T18:35:23Z</time>
      </trkpt>
      <trkpt lat="44.14056" lon="5.16777">
        <ele>361</ele>
        <time>2025-11-11T18:35:39Z</time>
      </trkpt>
      <trkpt lat="44.14051" lon="5.16839">
        <ele>367</ele>
        <time>2025-11-11T18:35:47Z</time>
      </trkpt>
      <trkpt lat="44.14051" lon="5.1688">
        <ele>371</ele>
        <time>2025-11-11T18:35:52Z</time>
      </trkpt>
      <trkpt lat="44.14063" lon="5.16954">
        <ele>376</ele>
        <time>2025-11-11T18:36:02Z</time>
      </trkpt>
      <trkpt lat="44.14064" lon="5.17006">
        <ele>378</ele>
        <time>2025-11-11T18:36:08Z</time>
      </trkpt>
      <trkpt lat="44.1405" lon="5.17062">
        <ele>380</ele>
        <time>2025-11-11T18:36:16Z</time>
      </trkpt>
      <trkpt lat="44.14038" lon="5.17141">
        <ele>382</ele>
        <time>2025-11-11T18:36:26Z</time>
      </trkpt>
      <trkpt lat="44.14025" lon="5.17153">
        <ele>382</ele>
        <time>2025-11-11T18:36:29Z</time>
      </trkpt>
      <trkpt lat="44.13983" lon="5.17158">
        <ele>384</ele>
        <time>2025-11-11T18:36:36Z</time>
      </trkpt>
      <trkpt lat="44.13956" lon="5.17157">
        <ele>387</ele>
        <time>2025-11-11T18:36:41Z</time>
      </trkpt>
      <trkpt lat="44.13942" lon="5.17164">
        <ele>389</ele>
        <time>2025-11-11T18:36:44Z</time>
      </trkpt>
      <trkpt lat="44.13934" lon="5.17184">
        <ele>389</ele>
        <time>2025-11-11T18:36:47Z</time>
      </trkpt>
      <trkpt lat="44.13912" lon="5.17289">
        <ele>389</ele>
        <time>2025-11-11T18:37:01Z</time>
      </trkpt>
      <trkpt lat="44.13897" lon="5.17331">
        <ele>391</ele>
        <time>2025-11-11T18:37:07Z</time>
      </trkpt>
      <trkpt lat="44.13882" lon="5.17356">
        <ele>391</ele>
        <time>2025-11-11T18:37:11Z</time>
      </trkpt>
      <trkpt lat="44.13816" lon="5.17437">
        <ele>388</ele>
        <time>2025-11-11T18:37:27Z</time>
      </trkpt>
      <trkpt lat="44.13775" lon="5.17497">
        <ele>384</ele>
        <time>2025-11-11T18:37:37Z</time>
      </trkpt>
      <trkpt lat="44.13754" lon="5.17512">
        <ele>382</ele>
        <time>2025-11-11T18:37:41Z</time>
      </trkpt>
      <trkpt lat="44.13714" lon="5.17527">
        <ele>380</ele>
        <time>2025-11-11T18:37:49Z</time>
      </trkpt>
      <trkpt lat="44.13699" lon="5.17539">
        <ele>378</ele>
        <time>2025-11-11T18:37:52Z</time>
      </trkpt>
      <trkpt lat="44.13656" lon="5.17605">
        <ele>375</ele>
        <time>2025-11-11T18:38:03Z</time>
      </trkpt>
      <trkpt lat="44.13658" lon="5.17615">
        <ele>375</ele>
        <time>2025-11-11T18:38:04Z</time>
      </trkpt>
      <trkpt lat="44.13682" lon="5.17645">
        <ele>376</ele>
        <time>2025-11-11T18:38:10Z</time>
      </trkpt>
      <trkpt lat="44.13765" lon="5.17733">
        <ele>377</ele>
        <time>2025-11-11T18:38:29Z</time>
      </trkpt>
      <trkpt lat="44.13822" lon="5.17824">
        <ele>377</ele>
        <time>2025-11-11T18:38:44Z</time>
      </trkpt>
      <trkpt lat="44.13839" lon="5.17863">
        <ele>378</ele>
        <time>2025-11-11T18:38:50Z</time>
      </trkpt>
      <trkpt lat="44.13838" lon="5.17949">
        <ele>380</ele>
        <time>2025-11-11T18:39:01Z</time>
      </trkpt>
      <trkpt lat="44.13843" lon="5.17987">
        <ele>382</ele>
        <time>2025-11-11T18:39:06Z</time>
      </trkpt>
      <trkpt lat="44.13855" lon="5.18">
        <ele>383</ele>
        <time>2025-11-11T18:39:09Z</time>
      </trkpt>
      <trkpt lat="44.13883" lon="5.18016">
        <ele>384</ele>
        <time>2025-11-11T18:39:14Z</time>
      </trkpt>
      <trkpt lat="44.13925" lon="5.18066">
        <ele>388</ele>
        <time>2025-11-11T18:39:24Z</time>
      </trkpt>
      <trkpt lat="44.13933" lon="5.18087">
        <ele>389</ele>
        <time>2025-11-11T18:39:27Z</time>
      </trkpt>
      <trkpt lat="44.1393" lon="5.18104">
        <ele>389</ele>
        <time>2025-11-11T18:39:29Z</time>
      </trkpt>
      <trkpt lat="44.13912" lon="5.18134">
        <ele>390</ele>
        <time>2025-11-11T18:39:34Z</time>
      </trkpt>
      <trkpt lat="44.1375" lon="5.18344">
        <ele>381</ele>
        <time>2025-11-11T18:40:13Z</time>
      </trkpt>
      <trkpt lat="44.13744" lon="5.18361">
        <ele>381</ele>
        <time>2025-11-11T18:40:16Z</time>
      </trkpt>
      <trkpt lat="44.1375" lon="5.18376">
        <ele>382</ele>
        <time>2025-11-11T18:40:18Z</time>
      </trkpt>
      <trkpt lat="44.13785" lon="5.18411">
        <ele>385</ele>
        <time>2025-11-11T18:40:26Z</time>
      </trkpt>
      <trkpt lat="44.13793" lon="5.1843">
        <ele>386</ele>
        <time>2025-11-11T18:40:29Z</time>
      </trkpt>
      <trkpt lat="44.13794" lon="5.18445">
        <ele>387</ele>
        <time>2025-11-11T18:40:30Z</time>
      </trkpt>
      <trkpt lat="44.13778" lon="5.18598">
        <ele>391</ele>
        <time>2025-11-11T18:40:50Z</time>
      </trkpt>
      <trkpt lat="44.13744" lon="5.18695">
        <ele>391</ele>
        <time>2025-11-11T18:41:04Z</time>
      </trkpt>
      <trkpt lat="44.13741" lon="5.18707">
        <ele>390</ele>
        <time>2025-11-11T18:41:06Z</time>
      </trkpt>
      <trkpt lat="44.13743" lon="5.18724">
        <ele>389</ele>
        <time>2025-11-11T18:41:08Z</time>
      </trkpt>
      <trkpt lat="44.13747" lon="5.1873">
        <ele>390</ele>
        <time>2025-11-11T18:41:09Z</time>
      </trkpt>
      <trkpt lat="44.13777" lon="5.18747">
        <ele>391</ele>
        <time>2025-11-11T18:41:15Z</time>
      </trkpt>
      <trkpt lat="44.13815" lon="5.18786">
        <ele>389</ele>
        <time>2025-11-11T18:41:23Z</time>
      </trkpt>
      <trkpt lat="44.13822" lon="5.18802">
        <ele>388</ele>
        <time>2025-11-11T18:41:25Z</time>
      </trkpt>
      <trkpt lat="44.13825" lon="5.18824">
        <ele>386</ele>
        <time>2025-11-11T18:41:28Z</time>
      </trkpt>
      <trkpt lat="44.13823" lon="5.1886">
        <ele>386</ele>
        <time>2025-11-11T18:41:33Z</time>
      </trkpt>
      <trkpt lat="44.13831" lon="5.18853">
        <ele>387</ele>
        <time>2025-11-11T18:41:35Z</time>
      </trkpt>
      <trkpt lat="44.13852" lon="5.18852">
        <ele>388</ele>
        <time>2025-11-11T18:41:38Z</time>
      </trkpt>
      <trkpt lat="44.13866" lon="5.18855">
        <ele>389</ele>
        <time>2025-11-11T18:41:41Z</time>
      </trkpt>
      <trkpt lat="44.13872" lon="5.18861">
        <ele>390</ele>
        <time>2025-11-11T18:41:42Z</time>
      </trkpt>
      <trkpt lat="44.13879" lon="5.18922">
        <ele>393</ele>
        <time>2025-11-11T18:41:50Z</time>
      </trkpt>
      <trkpt lat="44.13868" lon="5.1894">
        <ele>395</ele>
        <time>2025-11-11T18:41:53Z</time>
      </trkpt>
      <trkpt lat="44.13845" lon="5.18959">
        <ele>395</ele>
        <time>2025-11-11T18:41:58Z</time>
      </trkpt>
      <trkpt lat="44.13843" lon="5.19038">
        <ele>402</ele>
        <time>2025-11-11T18:42:08Z</time>
      </trkpt>
      <trkpt lat="44.13821" lon="5.19063">
        <ele>401</ele>
        <time>2025-11-11T18:42:13Z</time>
      </trkpt>
      <trkpt lat="44.13808" lon="5.19148">
        <ele>407</ele>
        <time>2025-11-11T18:42:24Z</time>
      </trkpt>
      <trkpt lat="44.13787" lon="5.19204">
        <ele>409</ele>
        <time>2025-11-11T18:42:32Z</time>
      </trkpt>
      <trkpt lat="44.13792" lon="5.19239">
        <ele>411</ele>
        <time>2025-11-11T18:42:37Z</time>
      </trkpt>
      <trkpt lat="44.13834" lon="5.193">
        <ele>416</ele>
        <time>2025-11-11T18:42:47Z</time>
      </trkpt>
      <trkpt lat="44.13848" lon="5.19354">
        <ele>418</ele>
        <time>2025-11-11T18:42:55Z</time>
      </trkpt>
      <trkpt lat="44.1385" lon="5.19411">
        <ele>421</ele>
        <time>2025-11-11T18:43:02Z</time>
      </trkpt>
      <trkpt lat="44.13858" lon="5.19439">
        <ele>422</ele>
        <time>2025-11-11T18:43:06Z</time>
      </trkpt>
      <trkpt lat="44.13854" lon="5.19564">
        <ele>426</ele>
        <time>2025-11-11T18:43:22Z</time>
      </trkpt>
      <trkpt lat="44.13868" lon="5.19616">
        <ele>429</ele>
        <time>2025-11-11T18:43:29Z</time>
      </trkpt>
      <trkpt lat="44.13868" lon="5.19634">
        <ele>430</ele>
        <time>2025-11-11T18:43:31Z</time>
      </trkpt>
      <trkpt lat="44.13853" lon="5.19684">
        <ele>431</ele>
        <time>2025-11-11T18:43:38Z</time>
      </trkpt>
      <trkpt lat="44.1384" lon="5.19703">
        <ele>431</ele>
        <time>2025-11-11T18:43:42Z</time>
      </trkpt>
      <trkpt lat="44.13831" lon="5.19706">
        <ele>430</ele>
        <time>2025-11-11T18:43:43Z</time>
      </trkpt>
      <trkpt lat="44.13798" lon="5.19705">
        <ele>427</ele>
        <time>2025-11-11T18:43:49Z</time>
      </trkpt>
      <trkpt lat="44.13756" lon="5.19744">
        <ele>424</ele>
        <time>2025-11-11T18:43:58Z</time>
      </trkpt>
      <trkpt lat="44.13752" lon="5.19752">
        <ele>424</ele>
        <time>2025-11-11T18:43:59Z</time>
      </trkpt>
      <trkpt lat="44.13761" lon="5.19766">
        <ele>425</ele>
        <time>2025-11-11T18:44:02Z</time>
      </trkpt>
      <trkpt lat="44.13809" lon="5.19803">
        <ele>431</ele>
        <time>2025-11-11T18:44:11Z</time>
      </trkpt>
      <trkpt lat="44.13846" lon="5.19854">
        <ele>436</ele>
        <time>2025-11-11T18:44:21Z</time>
      </trkpt>
      <trkpt lat="44.13847" lon="5.19902">
        <ele>437</ele>
        <time>2025-11-11T18:44:27Z</time>
      </trkpt>
      <trkpt lat="44.13835" lon="5.1993">
        <ele>436</ele>
        <time>2025-11-11T18:44:31Z</time>
      </trkpt>
      <trkpt lat="44.13836" lon="5.19943">
        <ele>436</ele>
        <time>2025-11-11T18:44:33Z</time>
      </trkpt>
      <trkpt lat="44.13826" lon="5.1997">
        <ele>436</ele>
        <time>2025-11-11T18:44:37Z</time>
      </trkpt>
      <trkpt lat="44.13821" lon="5.20016">
        <ele>437</ele>
        <time>2025-11-11T18:44:43Z</time>
      </trkpt>
      <trkpt lat="44.13814" lon="5.20043">
        <ele>436</ele>
        <time>2025-11-11T18:44:46Z</time>
      </trkpt>
      <trkpt lat="44.13806" lon="5.20064">
        <ele>436</ele>
        <time>2025-11-11T18:44:49Z</time>
      </trkpt>
      <trkpt lat="44.13785" lon="5.20092">
        <ele>434</ele>
        <time>2025-11-11T18:44:54Z</time>
      </trkpt>
      <trkpt lat="44.13778" lon="5.20111">
        <ele>433</ele>
        <time>2025-11-11T18:44:57Z</time>
      </trkpt>
      <trkpt lat="44.13769" lon="5.20173">
        <ele>434</ele>
        <time>2025-11-11T18:45:05Z</time>
      </trkpt>
      <trkpt lat="44.13736" lon="5.2029">
        <ele>439</ele>
        <time>2025-11-11T18:45:21Z</time>
      </trkpt>
      <trkpt lat="44.1369" lon="5.20376">
        <ele>440</ele>
        <time>2025-11-11T18:45:35Z</time>
      </trkpt>
      <trkpt lat="44.13678" lon="5.20388">
        <ele>440</ele>
        <time>2025-11-11T18:45:38Z</time>
      </trkpt>
      <trkpt lat="44.13668" lon="5.2038">
        <ele>438</ele>
        <time>2025-11-11T18:45:40Z</time>
      </trkpt>
      <trkpt lat="44.1365" lon="5.20332">
        <ele>432</ele>
        <time>2025-11-11T18:45:47Z</time>
      </trkpt>
      <trkpt lat="44.13623" lon="5.20292">
        <ele>426</ele>
        <time>2025-11-11T18:45:54Z</time>
      </trkpt>
      <trkpt lat="44.13565" lon="5.20174">
        <ele>412</ele>
        <time>2025-11-11T18:46:12Z</time>
      </trkpt>
      <trkpt lat="44.13478" lon="5.20036">
        <ele>399</ele>
        <time>2025-11-11T18:46:35Z</time>
      </trkpt>
      <trkpt lat="44.13454" lon="5.19963">
        <ele>395</ele>
        <time>2025-11-11T18:46:46Z</time>
      </trkpt>
      <trkpt lat="44.13419" lon="5.19889">
        <ele>390</ele>
        <time>2025-11-11T18:46:57Z</time>
      </trkpt>
      <trkpt lat="44.13359" lon="5.19803">
        <ele>381</ele>
        <time>2025-11-11T18:47:12Z</time>
      </trkpt>
      <trkpt lat="44.13293" lon="5.19747">
        <ele>372</ele>
        <time>2025-11-11T18:47:26Z</time>
      </trkpt>
      <trkpt lat="44.13256" lon="5.19705">
        <ele>367</ele>
        <time>2025-11-11T18:47:34Z</time>
      </trkpt>
      <trkpt lat="44.13061" lon="5.19442">
        <ele>349</ele>
        <time>2025-11-11T18:48:23Z</time>
      </trkpt>
      <trkpt lat="44.13032" lon="5.19408">
        <ele>347</ele>
        <time>2025-11-11T18:48:29Z</time>
      </trkpt>
      <trkpt lat="44.13005" lon="5.19358">
        <ele>345</ele>
        <time>2025-11-11T18:48:37Z</time>
      </trkpt>
      <trkpt lat="44.12985" lon="5.19309">
        <ele>343</ele>
        <time>2025-11-11T18:48:45Z</time>
      </trkpt>
      <trkpt lat="44.12978" lon="5.19303">
        <ele>342</ele>
        <time>2025-11-11T18:48:46Z</time>
      </trkpt>
      <trkpt lat="44.1297" lon="5.19335">
        <ele>343</ele>
        <time>2025-11-11T18:48:50Z</time>
      </trkpt>
      <trkpt lat="44.1296" lon="5.19463">
        <ele>344</ele>
        <time>2025-11-11T18:49:07Z</time>
      </trkpt>
      <trkpt lat="44.12953" lon="5.195">
        <ele>344</ele>
        <time>2025-11-11T18:49:12Z</time>
      </trkpt>
      <trkpt lat="44.12947" lon="5.19522">
        <ele>344</ele>
        <time>2025-11-11T18:49:15Z</time>
      </trkpt>
      <trkpt lat="44.12871" lon="5.19705">
        <ele>348</ele>
        <time>2025-11-11T18:49:42Z</time>
      </trkpt>
      <trkpt lat="44.12869" lon="5.19728">
        <ele>349</ele>
        <time>2025-11-11T18:49:45Z</time>
      </trkpt>
      <trkpt lat="44.12875" lon="5.19793">
        <ele>352</ele>
        <time>2025-11-11T18:49:53Z</time>
      </trkpt>
      <trkpt lat="44.12871" lon="5.1981">
        <ele>353</ele>
        <time>2025-11-11T18:49:55Z</time>
      </trkpt>
      <trkpt lat="44.12855" lon="5.19817">
        <ele>353</ele>
        <time>2025-11-11T18:49:58Z</time>
      </trkpt>
      <trkpt lat="44.12813" lon="5.19824">
        <ele>352</ele>
        <time>2025-11-11T18:50:06Z</time>
      </trkpt>
      <trkpt lat="44.12763" lon="5.19838">
        <ele>352</ele>
        <time>2025-11-11T18:50:15Z</time>
      </trkpt>
      <trkpt lat="44.12631" lon="5.19885">
        <ele>352</ele>
        <time>2025-11-11T18:50:39Z</time>
      </trkpt>
      <trkpt lat="44.12579" lon="5.19927">
        <ele>353</ele>
        <time>2025-11-11T18:50:50Z</time>
      </trkpt>
      <trkpt lat="44.12567" lon="5.19961">
        <ele>355</ele>
        <time>2025-11-11T18:50:55Z</time>
      </trkpt>
      <trkpt lat="44.12555" lon="5.19975">
        <ele>356</ele>
        <time>2025-11-11T18:50:58Z</time>
      </trkpt>
      <trkpt lat="44.12474" lon="5.20024">
        <ele>359</ele>
        <time>2025-11-11T18:51:13Z</time>
      </trkpt>
      <trkpt lat="44.1244" lon="5.2003">
        <ele>358</ele>
        <time>2025-11-11T18:51:19Z</time>
      </trkpt>
      <trkpt lat="44.1243" lon="5.20036">
        <ele>358</ele>
        <time>2025-11-11T18:51:21Z</time>
      </trkpt>
      <trkpt lat="44.12404" lon="5.20086">
        <ele>361</ele>
        <time>2025-11-11T18:51:29Z</time>
      </trkpt>
      <trkpt lat="44.12387" lon="5.20099">
        <ele>363</ele>
        <time>2025-11-11T18:51:33Z</time>
      </trkpt>
      <trkpt lat="44.1233" lon="5.20116">
        <ele>368</ele>
        <time>2025-11-11T18:51:43Z</time>
      </trkpt>
      <trkpt lat="44.12307" lon="5.20118">
        <ele>368</ele>
        <time>2025-11-11T18:51:47Z</time>
      </trkpt>
      <trkpt lat="44.12278" lon="5.20133">
        <ele>368</ele>
        <time>2025-11-11T18:51:53Z</time>
      </trkpt>
      <trkpt lat="44.12264" lon="5.20148">
        <ele>368</ele>
        <time>2025-11-11T18:51:56Z</time>
      </trkpt>
      <trkpt lat="44.12241" lon="5.20159">
        <ele>367</ele>
        <time>2025-11-11T18:52:00Z</time>
      </trkpt>
      <trkpt lat="44.12202" lon="5.20153">
        <ele>366</ele>
        <time>2025-11-11T18:52:07Z</time>
      </trkpt>
      <trkpt lat="44.12191" lon="5.20161">
        <ele>366</ele>
        <time>2025-11-11T18:52:09Z</time>
      </trkpt>
      <trkpt lat="44.12173" lon="5.20255">
        <ele>365</ele>
        <time>2025-11-11T18:52:22Z</time>
      </trkpt>
      <trkpt lat="44.12178" lon="5.20272">
        <ele>366</ele>
        <time>2025-11-11T18:52:24Z</time>
      </trkpt>
      <trkpt lat="44.12203" lon="5.20307">
        <ele>367</ele>
        <time>2025-11-11T18:52:30Z</time>
      </trkpt>
      <trkpt lat="44.1222" lon="5.20366">
        <ele>369</ele>
        <time>2025-11-11T18:52:38Z</time>
      </trkpt>
      <trkpt lat="44.12219" lon="5.20434">
        <ele>371</ele>
        <time>2025-11-11T18:52:47Z</time>
      </trkpt>
      <trkpt lat="44.12244" lon="5.20553">
        <ele>375</ele>
        <time>2025-11-11T18:53:03Z</time>
      </trkpt>
      <trkpt lat="44.12241" lon="5.20659">
        <ele>379</ele>
        <time>2025-11-11T18:53:17Z</time>
      </trkpt>
      <trkpt lat="44.12245" lon="5.20735">
        <ele>382</ele>
        <time>2025-11-11T18:53:26Z</time>
      </trkpt>
      <trkpt lat="44.12242" lon="5.2076">
        <ele>383</ele>
        <time>2025-11-11T18:53:29Z</time>
      </trkpt>
      <trkpt lat="44.1225" lon="5.2077">
        <ele>383</ele>
        <time>2025-11-11T18:53:31Z</time>
      </trkpt>
      <trkpt lat="44.1228" lon="5.20772">
        <ele>385</ele>
        <time>2025-11-11T18:53:37Z</time>
      </trkpt>
      <trkpt lat="44.12298" lon="5.20782">
        <ele>387</ele>
        <time>2025-11-11T18:53:40Z</time>
      </trkpt>
      <trkpt lat="44.12341" lon="5.20831">
        <ele>389</ele>
        <time>2025-11-11T18:53:50Z</time>
      </trkpt>
      <trkpt lat="44.12354" lon="5.20854">
        <ele>389</ele>
        <time>2025-11-11T18:53:54Z</time>
      </trkpt>
      <trkpt lat="44.12357" lon="5.20906">
        <ele>391</ele>
        <time>2025-11-11T18:54:00Z</time>
      </trkpt>
      <trkpt lat="44.1233" lon="5.21018">
        <ele>394</ele>
        <time>2025-11-11T18:54:16Z</time>
      </trkpt>
      <trkpt lat="44.1234" lon="5.2106">
        <ele>398</ele>
        <time>2025-11-11T18:54:21Z</time>
      </trkpt>
      <trkpt lat="44.12343" lon="5.21116">
        <ele>402</ele>
        <time>2025-11-11T18:54:28Z</time>
      </trkpt>
      <trkpt lat="44.12358" lon="5.21171">
        <ele>405</ele>
        <time>2025-11-11T18:54:36Z</time>
      </trkpt>
      <trkpt lat="44.12362" lon="5.21208">
        <ele>406</ele>
        <time>2025-11-11T18:54:41Z</time>
      </trkpt>
      <trkpt lat="44.12389" lon="5.21294">
        <ele>410</ele>
        <time>2025-11-11T18:54:53Z</time>
      </trkpt>
      <trkpt lat="44.12406" lon="5.21331">
        <ele>414</ele>
        <time>2025-11-11T18:54:58Z</time>
      </trkpt>
      <trkpt lat="44.12445" lon="5.21377">
        <ele>417</ele>
        <time>2025-11-11T18:55:07Z</time>
      </trkpt>
      <trkpt lat="44.12472" lon="5.21429">
        <ele>420</ele>
        <time>2025-11-11T18:55:16Z</time>
      </trkpt>
      <trkpt lat="44.12486" lon="5.21444">
        <ele>422</ele>
        <time>2025-11-11T18:55:19Z</time>
      </trkpt>
      <trkpt lat="44.12505" lon="5.21491">
        <ele>425</ele>
        <time>2025-11-11T18:55:26Z</time>
      </trkpt>
      <trkpt lat="44.12514" lon="5.21533">
        <ele>426</ele>
        <time>2025-11-11T18:55:31Z</time>
      </trkpt>
      <trkpt lat="44.12531" lon="5.21584">
        <ele>428</ele>
        <time>2025-11-11T18:55:38Z</time>
      </trkpt>
      <trkpt lat="44.12552" lon="5.2169">
        <ele>432</ele>
        <time>2025-11-11T18:55:52Z</time>
      </trkpt>
      <trkpt lat="44.1257" lon="5.21731">
        <ele>437</ele>
        <time>2025-11-11T18:55:59Z</time>
      </trkpt>
      <trkpt lat="44.12611" lon="5.21806">
        <ele>443</ele>
        <time>2025-11-11T18:56:11Z</time>
      </trkpt>
      <trkpt lat="44.12683" lon="5.21962">
        <ele>457</ele>
        <time>2025-11-11T18:56:34Z</time>
      </trkpt>
      <trkpt lat="44.12756" lon="5.22273">
        <ele>482</ele>
        <time>2025-11-11T18:57:16Z</time>
      </trkpt>
      <trkpt lat="44.12758" lon="5.22305">
        <ele>484</ele>
        <time>2025-11-11T18:57:20Z</time>
      </trkpt>
      <trkpt lat="44.12779" lon="5.22395">
        <ele>493</ele>
        <time>2025-11-11T18:57:32Z</time>
      </trkpt>
      <trkpt lat="44.1278" lon="5.22456">
        <ele>498</ele>
        <time>2025-11-11T18:57:40Z</time>
      </trkpt>
      <trkpt lat="44.12786" lon="5.22462">
        <ele>500</ele>
        <time>2025-11-11T18:57:41Z</time>
      </trkpt>
      <trkpt lat="44.12797" lon="5.22453">
        <ele>500</ele>
        <time>2025-11-11T18:57:44Z</time>
      </trkpt>
      <trkpt lat="44.12822" lon="5.22456">
        <ele>504</ele>
        <time>2025-11-11T18:57:48Z</time>
      </trkpt>
      <trkpt lat="44.12829" lon="5.2246">
        <ele>506</ele>
        <time>2025-11-11T18:57:49Z</time>
      </trkpt>
      <trkpt lat="44.12838" lon="5.22478">
        <ele>508</ele>
        <time>2025-11-11T18:57:52Z</time>
      </trkpt>
      <trkpt lat="44.12805" lon="5.22552">
        <ele>513</ele>
        <time>2025-11-11T18:58:03Z</time>
      </trkpt>
      <trkpt lat="44.12777" lon="5.22631">
        <ele>519</ele>
        <time>2025-11-11T18:58:15Z</time>
      </trkpt>
      <trkpt lat="44.12731" lon="5.22714">
        <ele>520</ele>
        <time>2025-11-11T18:58:28Z</time>
      </trkpt>
      <trkpt lat="44.12715" lon="5.22761">
        <ele>521</ele>
        <time>2025-11-11T18:58:35Z</time>
      </trkpt>
      <trkpt lat="44.12692" lon="5.22804">
        <ele>522</ele>
        <time>2025-11-11T18:58:42Z</time>
      </trkpt>
      <trkpt lat="44.12672" lon="5.22879">
        <ele>526</ele>
        <time>2025-11-11T18:58:52Z</time>
      </trkpt>
      <trkpt lat="44.1266" lon="5.22902">
        <ele>527</ele>
        <time>2025-11-11T18:58:55Z</time>
      </trkpt>
      <trkpt lat="44.12624" lon="5.22928">
        <ele>528</ele>
        <time>2025-11-11T18:59:03Z</time>
      </trkpt>
      <trkpt lat="44.12606" lon="5.22927">
        <ele>528</ele>
        <time>2025-11-11T18:59:06Z</time>
      </trkpt>
      <trkpt lat="44.12584" lon="5.22907">
        <ele>525</ele>
        <time>2025-11-11T18:59:10Z</time>
      </trkpt>
      <trkpt lat="44.12561" lon="5.22853">
        <ele>519</ele>
        <time>2025-11-11T18:59:18Z</time>
      </trkpt>
      <trkpt lat="44.12551" lon="5.22847">
        <ele>518</ele>
        <time>2025-11-11T18:59:20Z</time>
      </trkpt>
      <trkpt lat="44.12487" lon="5.22877">
        <ele>518</ele>
        <time>2025-11-11T18:59:32Z</time>
      </trkpt>
      <trkpt lat="44.12395" lon="5.23021">
        <ele>518</ele>
        <time>2025-11-11T18:59:57Z</time>
      </trkpt>
      <trkpt lat="44.12275" lon="5.23194">
        <ele>522</ele>
        <time>2025-11-11T19:00:28Z</time>
      </trkpt>
      <trkpt lat="44.12249" lon="5.23243">
        <ele>527</ele>
        <time>2025-11-11T19:00:36Z</time>
      </trkpt>
      <trkpt lat="44.12228" lon="5.23273">
        <ele>528</ele>
        <time>2025-11-11T19:00:41Z</time>
      </trkpt>
      <trkpt lat="44.12183" lon="5.2331">
        <ele>527</ele>
        <time>2025-11-11T19:00:50Z</time>
      </trkpt>
      <trkpt lat="44.1211" lon="5.23407">
        <ele>535</ele>
        <time>2025-11-11T19:01:08Z</time>
      </trkpt>
      <trkpt lat="44.12038" lon="5.23482">
        <ele>541</ele>
        <time>2025-11-11T19:01:24Z</time>
      </trkpt>
      <trkpt lat="44.1194" lon="5.23627">
        <ele>549</ele>
        <time>2025-11-11T19:01:50Z</time>
      </trkpt>
      <trkpt lat="44.11882" lon="5.23726">
        <ele>551</ele>
        <time>2025-11-11T19:02:06Z</time>
      </trkpt>
      <trkpt lat="44.11851" lon="5.23767">
        <ele>548</ele>
        <time>2025-11-11T19:02:14Z</time>
      </trkpt>
      <trkpt lat="44.11834" lon="5.2381">
        <ele>550</ele>
        <time>2025-11-11T19:02:20Z</time>
      </trkpt>
      <trkpt lat="44.11821" lon="5.23831">
        <ele>550</ele>
        <time>2025-11-11T19:02:23Z</time>
      </trkpt>
      <trkpt lat="44.11749" lon="5.23928">
        <ele>549</ele>
        <time>2025-11-11T19:02:41Z</time>
      </trkpt>
      <trkpt lat="44.11724" lon="5.2395">
        <ele>548</ele>
        <time>2025-11-11T19:02:46Z</time>
      </trkpt>
      <trkpt lat="44.11701" lon="5.23953">
        <ele>544</ele>
        <time>2025-11-11T19:02:51Z</time>
      </trkpt>
      <trkpt lat="44.11629" lon="5.23982">
        <ele>537</ele>
        <time>2025-11-11T19:03:04Z</time>
      </trkpt>
      <trkpt lat="44.11609" lon="5.24005">
        <ele>537</ele>
        <time>2025-11-11T19:03:08Z</time>
      </trkpt>
      <trkpt lat="44.11598" lon="5.24012">
        <ele>536</ele>
        <time>2025-11-11T19:03:11Z</time>
      </trkpt>
      <trkpt lat="44.11568" lon="5.2402">
        <ele>535</ele>
        <time>2025-11-11T19:03:16Z</time>
      </trkpt>
      <trkpt lat="44.11499" lon="5.24029">
        <ele>538</ele>
        <time>2025-11-11T19:03:28Z</time>
      </trkpt>
      <trkpt lat="44.11481" lon="5.24024">
        <ele>539</ele>
        <time>2025-11-11T19:03:32Z</time>
      </trkpt>
      <trkpt lat="44.11441" lon="5.23991">
        <ele>537</ele>
        <time>2025-11-11T19:03:40Z</time>
      </trkpt>
      <trkpt lat="44.11406" lon="5.23974">
        <ele>537</ele>
        <time>2025-11-11T19:03:47Z</time>
      </trkpt>
      <trkpt lat="44.11367" lon="5.23968">
        <ele>539</ele>
        <time>2025-11-11T19:03:54Z</time>
      </trkpt>
      <trkpt lat="44.11333" lon="5.23982">
        <ele>543</ele>
        <time>2025-11-11T19:04:00Z</time>
      </trkpt>
      <trkpt lat="44.11316" lon="5.23976">
        <ele>542</ele>
        <time>2025-11-11T19:04:03Z</time>
      </trkpt>
      <trkpt lat="44.11289" lon="5.23942">
        <ele>538</ele>
        <time>2025-11-11T19:04:09Z</time>
      </trkpt>
      <trkpt lat="44.11192" lon="5.23784">
        <ele>524</ele>
        <time>2025-11-11T19:04:36Z</time>
      </trkpt>
      <trkpt lat="44.11121" lon="5.23679">
        <ele>514</ele>
        <time>2025-11-11T19:04:54Z</time>
      </trkpt>
      <trkpt lat="44.11085" lon="5.23634">
        <ele>510</ele>
        <time>2025-11-11T19:05:03Z</time>
      </trkpt>
      <trkpt lat="44.10994" lon="5.23544">
        <ele>498</ele>
        <time>2025-11-11T19:05:23Z</time>
      </trkpt>
      <trkpt lat="44.10997" lon="5.23526">
        <ele>496</ele>
        <time>2025-11-11T19:05:25Z</time>
      </trkpt>
      <trkpt lat="44.11051" lon="5.23449">
        <ele>494</ele>
        <time>2025-11-11T19:05:39Z</time>
      </trkpt>
      <trkpt lat="44.11059" lon="5.23429">
        <ele>492</ele>
        <time>2025-11-11T19:05:42Z</time>
      </trkpt>
      <trkpt lat="44.11057" lon="5.23314">
        <ele>486</ele>
        <time>2025-11-11T19:05:57Z</time>
      </trkpt>
      <trkpt lat="44.11064" lon="5.23181">
        <ele>477</ele>
        <time>2025-11-11T19:06:14Z</time>
      </trkpt>
      <trkpt lat="44.1107" lon="5.2312">
        <ele>473</ele>
        <time>2025-11-11T19:06:22Z</time>
      </trkpt>
      <trkpt lat="44.11081" lon="5.23077">
        <ele>471</ele>
        <time>2025-11-11T19:06:27Z</time>
      </trkpt>
      <trkpt lat="44.11054" lon="5.22995">
        <ele>465</ele>
        <time>2025-11-11T19:06:39Z</time>
      </trkpt>
      <trkpt lat="44.11041" lon="5.22932">
        <ele>461</ele>
        <time>2025-11-11T19:06:47Z</time>
      </trkpt>
      <trkpt lat="44.11041" lon="5.22832">
        <ele>456</ele>
        <time>2025-11-11T19:07:00Z</time>
      </trkpt>
      <trkpt lat="44.11028" lon="5.22778">
        <ele>453</ele>
        <time>2025-11-11T19:07:07Z</time>
      </trkpt>
      <trkpt lat="44.11016" lon="5.22771">
        <ele>453</ele>
        <time>2025-11-11T19:07:10Z</time>
      </trkpt>
      <trkpt lat="44.10971" lon="5.22769">
        <ele>452</ele>
        <time>2025-11-11T19:07:18Z</time>
      </trkpt>
      <trkpt lat="44.10963" lon="5.22749">
        <ele>452</ele>
        <time>2025-11-11T19:07:21Z</time>
      </trkpt>
      <trkpt lat="44.10951" lon="5.22628">
        <ele>446</ele>
        <time>2025-11-11T19:07:36Z</time>
      </trkpt>
      <trkpt lat="44.10954" lon="5.22571">
        <ele>442</ele>
        <time>2025-11-11T19:07:43Z</time>
      </trkpt>
      <trkpt lat="44.10945" lon="5.22472">
        <ele>436</ele>
        <time>2025-11-11T19:07:56Z</time>
      </trkpt>
      <trkpt lat="44.10948" lon="5.22417">
        <ele>433</ele>
        <time>2025-11-11T19:08:03Z</time>
      </trkpt>
      <trkpt lat="44.10944" lon="5.22394">
        <ele>432</ele>
        <time>2025-11-11T19:08:06Z</time>
      </trkpt>
      <trkpt lat="44.10956" lon="5.2237">
        <ele>431</ele>
        <time>2025-11-11T19:08:10Z</time>
      </trkpt>
      <trkpt lat="44.10955" lon="5.2235">
        <ele>430</ele>
        <time>2025-11-11T19:08:13Z</time>
      </trkpt>
      <trkpt lat="44.10949" lon="5.22327">
        <ele>429</ele>
        <time>2025-11-11T19:08:16Z</time>
      </trkpt>
      <trkpt lat="44.10941" lon="5.22321">
        <ele>429</ele>
        <time>2025-11-11T19:08:17Z</time>
      </trkpt>
      <trkpt lat="44.10937" lon="5.22309">
        <ele>428</ele>
        <time>2025-11-11T19:08:19Z</time>
      </trkpt>
      <trkpt lat="44.10922" lon="5.22129">
        <ele>418</ele>
        <time>2025-11-11T19:08:42Z</time>
      </trkpt>
      <trkpt lat="44.10906" lon="5.221">
        <ele>416</ele>
        <time>2025-11-11T19:08:47Z</time>
      </trkpt>
      <trkpt lat="44.10864" lon="5.21998">
        <ele>409</ele>
        <time>2025-11-11T19:09:02Z</time>
      </trkpt>
      <trkpt lat="44.10838" lon="5.21891">
        <ele>404</ele>
        <time>2025-11-11T19:09:16Z</time>
      </trkpt>
      <trkpt lat="44.10837" lon="5.21811">
        <ele>400</ele>
        <time>2025-11-11T19:09:27Z</time>
      </trkpt>
      <trkpt lat="44.10854" lon="5.21672">
        <ele>395</ele>
        <time>2025-11-11T19:09:45Z</time>
      </trkpt>
      <trkpt lat="44.10811" lon="5.21456">
        <ele>383</ele>
        <time>2025-11-11T19:10:13Z</time>
      </trkpt>
      <trkpt lat="44.10777" lon="5.21228">
        <ele>373</ele>
        <time>2025-11-11T19:10:43Z</time>
      </trkpt>
      <trkpt lat="44.10732" lon="5.21089">
        <ele>367</ele>
        <time>2025-11-11T19:11:02Z</time>
      </trkpt>
      <trkpt lat="44.10766" lon="5.21044">
        <ele>366</ele>
        <time>2025-11-11T19:11:11Z</time>
      </trkpt>
      <trkpt lat="44.10828" lon="5.20977">
        <ele>365</ele>
        <time>2025-11-11T19:11:25Z</time>
      </trkpt>
      <trkpt lat="44.10858" lon="5.20938">
        <ele>365</ele>
        <time>2025-11-11T19:11:32Z</time>
      </trkpt>
      <trkpt lat="44.10891" lon="5.20878">
        <ele>366</ele>
        <time>2025-11-11T19:11:42Z</time>
      </trkpt>
      <trkpt lat="44.10891" lon="5.20858">
        <ele>366</ele>
        <time>2025-11-11T19:11:44Z</time>
      </trkpt>
      <trkpt lat="44.10844" lon="5.20803">
        <ele>362</ele>
        <time>2025-11-11T19:11:55Z</time>
      </trkpt>
      <trkpt lat="44.10836" lon="5.20797">
        <ele>362</ele>
        <time>2025-11-11T19:11:57Z</time>
      </trkpt>
      <trkpt lat="44.10828" lon="5.20799">
        <ele>361</ele>
        <time>2025-11-11T19:11:58Z</time>
      </trkpt>
      <trkpt lat="44.10812" lon="5.20845">
        <ele>362</ele>
        <time>2025-11-11T19:12:05Z</time>
      </trkpt>
      <trkpt lat="44.10802" lon="5.20848">
        <ele>361</ele>
        <time>2025-11-11T19:12:07Z</time>
      </trkpt>
      <trkpt lat="44.10748" lon="5.20777">
        <ele>358</ele>
        <time>2025-11-11T19:12:20Z</time>
      </trkpt>
      <trkpt lat="44.10724" lon="5.20762">
        <ele>357</ele>
        <time>2025-11-11T19:12:24Z</time>
      </trkpt>
      <trkpt lat="44.10687" lon="5.20721">
        <ele>354</ele>
        <time>2025-11-11T19:12:33Z</time>
      </trkpt>
      <trkpt lat="44.10663" lon="5.20707">
        <ele>353</ele>
        <time>2025-11-11T19:12:37Z</time>
      </trkpt>
      <trkpt lat="44.10603" lon="5.20644">
        <ele>348</ele>
        <time>2025-11-11T19:12:51Z</time>
      </trkpt>
      <trkpt lat="44.1057" lon="5.20593">
        <ele>347</ele>
        <time>2025-11-11T19:13:00Z</time>
      </trkpt>
      <trkpt lat="44.10544" lon="5.20541">
        <ele>346</ele>
        <time>2025-11-11T19:13:08Z</time>
      </trkpt>
      <trkpt lat="44.1052" lon="5.20506">
        <ele>346</ele>
        <time>2025-11-11T19:13:14Z</time>
      </trkpt>
      <trkpt lat="44.10501" lon="5.20498">
        <ele>346</ele>
        <time>2025-11-11T19:13:17Z</time>
      </trkpt>
      <trkpt lat="44.10468" lon="5.20503">
        <ele>346</ele>
        <time>2025-11-11T19:13:23Z</time>
      </trkpt>
      <trkpt lat="44.10455" lon="5.20498">
        <ele>346</ele>
        <time>2025-11-11T19:13:26Z</time>
      </trkpt>
      <trkpt lat="44.10429" lon="5.20468">
        <ele>345</ele>
        <time>2025-11-11T19:13:32Z</time>
      </trkpt>
      <trkpt lat="44.10417" lon="5.20446">
        <ele>345</ele>
        <time>2025-11-11T19:13:35Z</time>
      </trkpt>
      <trkpt lat="44.10376" lon="5.20322">
        <ele>345</ele>
        <time>2025-11-11T19:13:53Z</time>
      </trkpt>
      <trkpt lat="44.10365" lon="5.20295">
        <ele>346</ele>
        <time>2025-11-11T19:13:57Z</time>
      </trkpt>
      <trkpt lat="44.10356" lon="5.20285">
        <ele>346</ele>
        <time>2025-11-11T19:13:59Z</time>
      </trkpt>
      <trkpt lat="44.10342" lon="5.20276">
        <ele>346</ele>
        <time>2025-11-11T19:14:01Z</time>
      </trkpt>
      <trkpt lat="44.1031" lon="5.20271">
        <ele>346</ele>
        <time>2025-11-11T19:14:07Z</time>
      </trkpt>
      <trkpt lat="44.10261" lon="5.20289">
        <ele>346</ele>
        <time>2025-11-11T19:14:16Z</time>
      </trkpt>
      <trkpt lat="44.10238" lon="5.20302">
        <ele>346</ele>
        <time>2025-11-11T19:14:21Z</time>
      </trkpt>
      <trkpt lat="44.10207" lon="5.20244">
        <ele>344</ele>
        <time>2025-11-11T19:14:30Z</time>
      </trkpt>
      <trkpt lat="44.10194" lon="5.20248">
        <ele>343</ele>
        <time>2025-11-11T19:14:32Z</time>
      </trkpt>
      <trkpt lat="44.10175" lon="5.20272">
        <ele>343</ele>
        <time>2025-11-11T19:14:37Z</time>
      </trkpt>
      <trkpt lat="44.10101" lon="5.20321">
        <ele>344</ele>
        <time>2025-11-11T19:14:51Z</time>
      </trkpt>
      <trkpt lat="44.10062" lon="5.20365">
        <ele>344</ele>
        <time>2025-11-11T19:15:00Z</time>
      </trkpt>
      <trkpt lat="44.10034" lon="5.20375">
        <ele>343</ele>
        <time>2025-11-11T19:15:05Z</time>
      </trkpt>
      <trkpt lat="44.09975" lon="5.20386">
        <ele>343</ele>
        <time>2025-11-11T19:15:16Z</time>
      </trkpt>
      <trkpt lat="44.09928" lon="5.20406">
        <ele>344</ele>
        <time>2025-11-11T19:15:25Z</time>
      </trkpt>
      <trkpt lat="44.09896" lon="5.20414">
        <ele>344</ele>
        <time>2025-11-11T19:15:31Z</time>
      </trkpt>
      <trkpt lat="44.09855" lon="5.20432">
        <ele>344</ele>
        <time>2025-11-11T19:15:38Z</time>
      </trkpt>
      <trkpt lat="44.09787" lon="5.20453">
        <ele>343</ele>
        <time>2025-11-11T19:15:51Z</time>
      </trkpt>
      <trkpt lat="44.09764" lon="5.20469">
        <ele>342</ele>
        <time>2025-11-11T19:15:55Z</time>
      </trkpt>
      <trkpt lat="44.09706" lon="5.20498">
        <ele>343</ele>
        <time>2025-11-11T19:16:06Z</time>
      </trkpt>
      <trkpt lat="44.09593" lon="5.20536">
        <ele>344</ele>
        <time>2025-11-11T19:16:27Z</time>
      </trkpt>
      <trkpt lat="44.09571" lon="5.20556">
        <ele>344</ele>
        <time>2025-11-11T19:16:32Z</time>
      </trkpt>
      <trkpt lat="44.0954" lon="5.20576">
        <ele>344</ele>
        <time>2025-11-11T19:16:38Z</time>
      </trkpt>
      <trkpt lat="44.09497" lon="5.20581">
        <ele>344</ele>
        <time>2025-11-11T19:16:45Z</time>
      </trkpt>
      <trkpt lat="44.09444" lon="5.20603">
        <ele>341</ele>
        <time>2025-11-11T19:16:55Z</time>
      </trkpt>
      <trkpt lat="44.09432" lon="5.20598">
        <ele>340</ele>
        <time>2025-11-11T19:16:57Z</time>
      </trkpt>
      <trkpt lat="44.08845" lon="5.20137">
        <ele>306</ele>
        <time>2025-11-11T19:18:57Z</time>
      </trkpt>
      <trkpt lat="44.08825" lon="5.20117">
        <ele>304</ele>
        <time>2025-11-11T19:19:02Z</time>
      </trkpt>
      <trkpt lat="44.08914" lon="5.19995">
        <ele>306</ele>
        <time>2025-11-11T19:19:24Z</time>
      </trkpt>
      <trkpt lat="44.09015" lon="5.19659">
        <ele>304</ele>
        <time>2025-11-11T19:20:10Z</time>
      </trkpt>
      <trkpt lat="44.09169" lon="5.19596">
        <ele>309</ele>
        <time>2025-11-11T19:20:39Z</time>
      </trkpt>
      <trkpt lat="44.0907" lon="5.19452">
        <ele>305</ele>
        <time>2025-11-11T19:21:04Z</time>
      </trkpt>
      <trkpt lat="44.08914" lon="5.19417">
        <ele>294</ele>
        <time>2025-11-11T19:21:33Z</time>
      </trkpt>
      <trkpt lat="44.08799" lon="5.19456">
        <ele>290</ele>
        <time>2025-11-11T19:21:54Z</time>
      </trkpt>
      <trkpt lat="44.08638" lon="5.19476">
        <ele>287</ele>
        <time>2025-11-11T19:22:22Z</time>
      </trkpt>
      <trkpt lat="44.08533" lon="5.19481">
        <ele>284</ele>
        <time>2025-11-11T19:22:41Z</time>
      </trkpt>
      <trkpt lat="44.08446" lon="5.19053">
        <ele>275</ele>
        <time>2025-11-11T19:23:38Z</time>
      </trkpt>
      <trkpt lat="44.0838" lon="5.18934">
        <ele>271</ele>
        <time>2025-11-11T19:23:57Z</time>
      </trkpt>
      <trkpt lat="44.08361" lon="5.18828">
        <ele>270</ele>
        <time>2025-11-11T19:24:11Z</time>
      </trkpt>
      <trkpt lat="44.08264" lon="5.18681">
        <ele>261</ele>
        <time>2025-11-11T19:24:37Z</time>
      </trkpt>
      <trkpt lat="44.08238" lon="5.1861">
        <ele>257</ele>
        <time>2025-11-11T19:24:47Z</time>
      </trkpt>
      <trkpt lat="44.08205" lon="5.18617">
        <ele>254</ele>
        <time>2025-11-11T19:24:53Z</time>
      </trkpt>
      <trkpt lat="44.08195" lon="5.18683">
        <ele>254</ele>
        <time>2025-11-11T19:25:01Z</time>
      </trkpt>
      <trkpt lat="44.08167" lon="5.18758">
        <ele>250</ele>
        <time>2025-11-11T19:25:12Z</time>
      </trkpt>
      <trkpt lat="44.08119" lon="5.18777">
        <ele>257</ele>
        <time>2025-11-11T19:25:21Z</time>
      </trkpt>
      <trkpt lat="44.08063" lon="5.18653">
        <ele>256</ele>
        <time>2025-11-11T19:25:40Z</time>
      </trkpt>
      <trkpt lat="44.0798" lon="5.1869">
        <ele>259</ele>
        <time>2025-11-11T19:25:55Z</time>
      </trkpt>
      <trkpt lat="44.07929" lon="5.18735">
        <ele>260</ele>
        <time>2025-11-11T19:26:06Z</time>
      </trkpt>
      <trkpt lat="44.07778" lon="5.18806">
        <ele>258</ele>
        <time>2025-11-11T19:26:34Z</time>
      </trkpt>
      <trkpt lat="44.07635" lon="5.18904">
        <ele>253</ele>
        <time>2025-11-11T19:27:03Z</time>
      </trkpt>
      <trkpt lat="44.07555" lon="5.18952">
        <ele>252</ele>
        <time>2025-11-11T19:27:18Z</time>
      </trkpt>
      <trkpt lat="44.07517" lon="5.18952">
        <ele>251</ele>
        <time>2025-11-11T19:27:25Z</time>
      </trkpt>
      <trkpt lat="44.0742" lon="5.18936">
        <ele>249</ele>
        <time>2025-11-11T19:27:42Z</time>
      </trkpt>
      <trkpt lat="44.07358" lon="5.18954">
        <ele>248</ele>
        <time>2025-11-11T19:27:54Z</time>
      </trkpt>
      <trkpt lat="44.0731" lon="5.18877">
        <ele>243</ele>
        <time>2025-11-11T19:28:07Z</time>
      </trkpt>
      <trkpt lat="44.07237" lon="5.18827">
        <ele>238</ele>
        <time>2025-11-11T19:28:21Z</time>
      </trkpt>
      <trkpt lat="44.07161" lon="5.18786">
        <ele>231</ele>
        <time>2025-11-11T19:28:36Z</time>
      </trkpt>
      <trkpt lat="44.06997" lon="5.18745">
        <ele>226</ele>
        <time>2025-11-11T19:29:05Z</time>
      </trkpt>
      <trkpt lat="44.06983" lon="5.1872">
        <ele>224</ele>
        <time>2025-11-11T19:29:09Z</time>
      </trkpt>
      <trkpt lat="44.06954" lon="5.18615">
        <ele>222</ele>
        <time>2025-11-11T19:29:24Z</time>
      </trkpt>
      <trkpt lat="44.06944" lon="5.18565">
        <ele>223</ele>
        <time>2025-11-11T19:29:30Z</time>
      </trkpt>
      <trkpt lat="44.06939" lon="5.18557">
        <ele>224</ele>
        <time>2025-11-11T19:29:32Z</time>
      </trkpt>
      <trkpt lat="44.06897" lon="5.1856">
        <ele>225</ele>
        <time>2025-11-11T19:29:39Z</time>
      </trkpt>
      <trkpt lat="44.06834" lon="5.18558">
        <ele>229</ele>
        <time>2025-11-11T19:29:50Z</time>
      </trkpt>
      <trkpt lat="44.06826" lon="5.1855">
        <ele>230</ele>
        <time>2025-11-11T19:29:52Z</time>
      </trkpt>
      <trkpt lat="44.06795" lon="5.18537">
        <ele>231</ele>
        <time>2025-11-11T19:29:58Z</time>
      </trkpt>
      <trkpt lat="44.0678" lon="5.18524">
        <ele>232</ele>
        <time>2025-11-11T19:30:01Z</time>
      </trkpt>
      <trkpt lat="44.06739" lon="5.185">
        <ele>233</ele>
        <time>2025-11-11T19:30:09Z</time>
      </trkpt>
      <trkpt lat="44.06728" lon="5.18483">
        <ele>234</ele>
        <time>2025-11-11T19:30:12Z</time>
      </trkpt>
      <trkpt lat="44.06723" lon="5.18489">
        <ele>233</ele>
        <time>2025-11-11T19:30:13Z</time>
      </trkpt>
      <trkpt lat="44.06706" lon="5.18478">
        <ele>232</ele>
        <time>2025-11-11T19:30:16Z</time>
      </trkpt>
      <trkpt lat="44.06677" lon="5.18446">
        <ele>232</ele>
        <time>2025-11-11T19:30:23Z</time>
      </trkpt>
      <trkpt lat="44.06674" lon="5.1842">
        <ele>234</ele>
        <time>2025-11-11T19:30:26Z</time>
      </trkpt>
      <trkpt lat="44.06675" lon="5.18378">
        <ele>237</ele>
        <time>2025-11-11T19:30:32Z</time>
      </trkpt>
      <trkpt lat="44.06691" lon="5.18325">
        <ele>242</ele>
        <time>2025-11-11T19:30:39Z</time>
      </trkpt>
      <trkpt lat="44.0673" lon="5.18318">
        <ele>244</ele>
        <time>2025-11-11T19:30:46Z</time>
      </trkpt>
      <trkpt lat="44.06707" lon="5.18196">
        <ele>242</ele>
        <time>2025-11-11T19:31:02Z</time>
      </trkpt>
      <trkpt lat="44.06667" lon="5.1813">
        <ele>242</ele>
        <time>2025-11-11T19:31:13Z</time>
      </trkpt>
      <trkpt lat="44.06586" lon="5.17972">
        <ele>241</ele>
        <time>2025-11-11T19:31:38Z</time>
      </trkpt>
      <trkpt lat="44.0656" lon="5.17791">
        <ele>243</ele>
        <time>2025-11-11T19:32:02Z</time>
      </trkpt>
      <trkpt lat="44.06552" lon="5.17761">
        <ele>244</ele>
        <time>2025-11-11T19:32:06Z</time>
      </trkpt>
      <trkpt lat="44.06508" lon="5.17651">
        <ele>246</ele>
        <time>2025-11-11T19:32:22Z</time>
      </trkpt>
      <trkpt lat="44.06486" lon="5.17573">
        <ele>246</ele>
        <time>2025-11-11T19:32:33Z</time>
      </trkpt>
      <trkpt lat="44.06463" lon="5.17516">
        <ele>248</ele>
        <time>2025-11-11T19:32:41Z</time>
      </trkpt>
      <trkpt lat="44.06394" lon="5.17382">
        <ele>252</ele>
        <time>2025-11-11T19:33:02Z</time>
      </trkpt>
      <trkpt lat="44.06343" lon="5.17234">
        <ele>256</ele>
        <time>2025-11-11T19:33:23Z</time>
      </trkpt>
      <trkpt lat="44.06314" lon="5.17179">
        <ele>258</ele>
        <time>2025-11-11T19:33:32Z</time>
      </trkpt>
      <trkpt lat="44.06228" lon="5.17057">
        <ele>254</ele>
        <time>2025-11-11T19:33:54Z</time>
      </trkpt>
      <trkpt lat="44.06208" lon="5.17021">
        <ele>254</ele>
        <time>2025-11-11T19:33:59Z</time>
      </trkpt>
      <trkpt lat="44.06193" lon="5.1698">
        <ele>254</ele>
        <time>2025-11-11T19:34:05Z</time>
      </trkpt>
      <trkpt lat="44.0615" lon="5.16776">
        <ele>247</ele>
        <time>2025-11-11T19:34:32Z</time>
      </trkpt>
      <trkpt lat="44.06133" lon="5.16723">
        <ele>246</ele>
        <time>2025-11-11T19:34:40Z</time>
      </trkpt>
      <trkpt lat="44.06117" lon="5.16691">
        <ele>244</ele>
        <time>2025-11-11T19:34:45Z</time>
      </trkpt>
      <trkpt lat="44.0605" lon="5.166">
        <ele>235</ele>
        <time>2025-11-11T19:35:02Z</time>
      </trkpt>
      <trkpt lat="44.06025" lon="5.1656">
        <ele>232</ele>
        <time>2025-11-11T19:35:08Z</time>
      </trkpt>
      <trkpt lat="44.05985" lon="5.16433">
        <ele>233</ele>
        <time>2025-11-11T19:35:26Z</time>
      </trkpt>
      <trkpt lat="44.05981" lon="5.16407">
        <ele>232</ele>
        <time>2025-11-11T19:35:29Z</time>
      </trkpt>
      <trkpt lat="44.05993" lon="5.16348">
        <ele>230</ele>
        <time>2025-11-11T19:35:37Z</time>
      </trkpt>
      <trkpt lat="44.06026" lon="5.16247">
        <ele>227</ele>
        <time>2025-11-11T19:35:51Z</time>
      </trkpt>
      <trkpt lat="44.06045" lon="5.16165">
        <ele>224</ele>
        <time>2025-11-11T19:36:02Z</time>
      </trkpt>
      <trkpt lat="44.0606" lon="5.16056">
        <ele>220</ele>
        <time>2025-11-11T19:36:17Z</time>
      </trkpt>
      <trkpt lat="44.06051" lon="5.15935">
        <ele>217</ele>
        <time>2025-11-11T19:36:32Z</time>
      </trkpt>
      <trkpt lat="44.06033" lon="5.15798">
        <ele>213</ele>
        <time>2025-11-11T19:36:50Z</time>
      </trkpt>
      <trkpt lat="44.06031" lon="5.15699">
        <ele>210</ele>
        <time>2025-11-11T19:37:03Z</time>
      </trkpt>
      <trkpt lat="44.06093" lon="5.15375">
        <ele>200</ele>
        <time>2025-11-11T19:37:46Z</time>
      </trkpt>
      <trkpt lat="44.06137" lon="5.1505">
        <ele>189</ele>
        <time>2025-11-11T19:38:28Z</time>
      </trkpt>
      <trkpt lat="44.0615" lon="5.14998">
        <ele>188</ele>
        <time>2025-11-11T19:38:35Z</time>
      </trkpt>
      <trkpt lat="44.0618" lon="5.14907">
        <ele>183</ele>
        <time>2025-11-11T19:38:48Z</time>
      </trkpt>
      <trkpt lat="44.06195" lon="5.14795">
        <ele>181</ele>
        <time>2025-11-11T19:39:02Z</time>
      </trkpt>
      <trkpt lat="44.06202" lon="5.14608">
        <ele>178</ele>
        <time>2025-11-11T19:39:26Z</time>
      </trkpt>
      <trkpt lat="44.0621" lon="5.14591">
        <ele>178</ele>
        <time>2025-11-11T19:39:29Z</time>
      </trkpt>
      <trkpt lat="44.06218" lon="5.14534">
        <ele>178</ele>
        <time>2025-11-11T19:39:36Z</time>
      </trkpt>
      <trkpt lat="44.06221" lon="5.14414">
        <ele>176</ele>
        <time>2025-11-11T19:39:52Z</time>
      </trkpt>
      <trkpt lat="44.06234" lon="5.1428">
        <ele>174</ele>
        <time>2025-11-11T19:40:09Z</time>
      </trkpt>
      <trkpt lat="44.06264" lon="5.14094">
        <ele>173</ele>
        <time>2025-11-11T19:40:33Z</time>
      </trkpt>
      <trkpt lat="44.0628" lon="5.13949">
        <ele>173</ele>
        <time>2025-11-11T19:40:52Z</time>
      </trkpt>
      <trkpt lat="44.06273" lon="5.1382">
        <ele>172</ele>
        <time>2025-11-11T19:41:09Z</time>
      </trkpt>
      <trkpt lat="44.0626" lon="5.13698">
        <ele>170</ele>
        <time>2025-11-11T19:41:24Z</time>
      </trkpt>
      <trkpt lat="44.06262" lon="5.13621">
        <ele>168</ele>
        <time>2025-11-11T19:41:34Z</time>
      </trkpt>
      <trkpt lat="44.06281" lon="5.13475">
        <ele>166</ele>
        <time>2025-11-11T19:41:53Z</time>
      </trkpt>
      <trkpt lat="44.06288" lon="5.1333">
        <ele>167</ele>
        <time>2025-11-11T19:42:12Z</time>
      </trkpt>
      <trkpt lat="44.06299" lon="5.13288">
        <ele>167</ele>
        <time>2025-11-11T19:42:17Z</time>
      </trkpt>
      <trkpt lat="44.06351" lon="5.12996">
        <ele>159</ele>
        <time>2025-11-11T19:42:56Z</time>
      </trkpt>
      <trkpt lat="44.06352" lon="5.12965">
        <ele>159</ele>
        <time>2025-11-11T19:43:00Z</time>
      </trkpt>
      <trkpt lat="44.06339" lon="5.12888">
        <ele>157</ele>
        <time>2025-11-11T19:43:10Z</time>
      </trkpt>
      <trkpt lat="44.0634" lon="5.12869">
        <ele>157</ele>
        <time>2025-11-11T19:43:12Z</time>
      </trkpt>
      <trkpt lat="44.06356" lon="5.12856">
        <ele>157</ele>
        <time>2025-11-11T19:43:16Z</time>
      </trkpt>
      <trkpt lat="44.06535" lon="5.12795">
        <ele>161</ele>
        <time>2025-11-11T19:43:48Z</time>
      </trkpt>
      <trkpt lat="44.06561" lon="5.1278">
        <ele>161</ele>
        <time>2025-11-11T19:43:53Z</time>
      </trkpt>
      <trkpt lat="44.06602" lon="5.12748">
        <ele>162</ele>
        <time>2025-11-11T19:44:02Z</time>
      </trkpt>
      <trkpt lat="44.06614" lon="5.12744">
        <ele>161</ele>
        <time>2025-11-11T19:44:04Z</time>
      </trkpt>
      <trkpt lat="44.06666" lon="5.12751">
        <ele>160</ele>
        <time>2025-11-11T19:44:13Z</time>
      </trkpt>
      <trkpt lat="44.06717" lon="5.12741">
        <ele>162</ele>
        <time>2025-11-11T19:44:23Z</time>
      </trkpt>
    </trkseg>
  </trk>
</gpx>